Observation data for Fritch on 01/21/2019      Previous  Date  Next       Current Mesonet Observations  Soil Data  Daily Summary Page  Observations in Plain Language
KFR1 210600Z 18012KT 06/M04 A2991 RMK A01 T00621039  RH  048%=      5-min Rain = 0
KFR1 210601Z 18014KT 06/M04 A2991 RMK A01 T00621039  RH  048%=      5-min Rain = 0
KFR1 210602Z 19012KT 06/M04 A2991 RMK A01 T00621039  RH  048%=      5-min Rain = 0
KFR1 210603Z 19012KT 06/M04 A2991 RMK A01 T00621039  RH  048%=      5-min Rain = 0
KFR1 210604Z 18012KT 06/M04 A2991 RMK A01 T00611039  RH  049%=      5-min Rain = 0
KFR1 210605Z 18011KT 06/M04 A2991 RMK A01 T00601039  RH  049%=      5-min Rain = 0
KFR1 210606Z 19014KT 06/M04 A2991 RMK A01 T00601039  RH  049%=      5-min Rain = 0
KFR1 210607Z 18014KT 06/M04 A2991 RMK A01 T00601039  RH  049%=      5-min Rain = 0
KFR1 210608Z 18014KT 06/M04 A299 RMK A01 T00601039  RH  049%=      5-min Rain = 0
KFR1 210609Z 18014KT 06/M04 A299 RMK A01 T00601039  RH  049%=      5-min Rain = 0
KFR1 210610Z 18015KT 06/M04 A299 RMK A01 T00591039  RH  049%=      5-min Rain = 0
KFR1 210611Z 19013KT 06/M04 A299 RMK A01 T00591039  RH  049%=      5-min Rain = 0
KFR1 210612Z 18014KT 06/M04 A299 RMK A01 T00581039  RH  050%=      5-min Rain = 0
KFR1 210613Z 18015KT 06/M04 A299 RMK A01 T00581039  RH  050%=      5-min Rain = 0
KFR1 210614Z 19015KT 06/M04 A299 RMK A01 T00581039  RH  050%=      5-min Rain = 0
KFR1 210615Z 19014KT 06/M04 A299 RMK A01 T00581039  RH  050%=      5-min Rain = 0
KFR1 210616Z 19015KT 06/M04 A299 RMK A01 T00581039  RH  050%=      5-min Rain = 0
KFR1 210617Z 19014KT 06/M04 A299 RMK A01 T00591039  RH  049%=      5-min Rain = 0
KFR1 210618Z 19015KT 06/M04 A299 RMK A01 T00591040  RH  049%=      5-min Rain = 0
KFR1 210619Z 19015KT 06/M04 A299 RMK A01 T00591039  RH  049%=      5-min Rain = 0
KFR1 210620Z 19014KT 06/M04 A299 RMK A01 T00591040  RH  049%=      5-min Rain = 0
KFR1 210621Z 19014KT 06/M04 A299 RMK A01 T00591040  RH  049%=      5-min Rain = 0
KFR1 210622Z 19014KT 06/M04 A299 RMK A01 T00591040  RH  049%=      5-min Rain = 0
KFR1 210623Z 19013KT 06/M04 A299 RMK A01 T00591040  RH  049%=      5-min Rain = 0
KFR1 210624Z 19014KT 06/M04 A299 RMK A01 T00601040  RH  049%=      5-min Rain = 0
KFR1 210625Z 19016KT 06/M04 A299 RMK A01 T00591040  RH  049%=      5-min Rain = 0
KFR1 210626Z 19015KT 06/M04 A299 RMK A01 T00601040  RH  049%=      5-min Rain = 0
KFR1 210627Z 19014KT 06/M04 A299 RMK A01 T00601040  RH  049%=      5-min Rain = 0
KFR1 210628Z 19014KT 06/M04 A299 RMK A01 T00591040  RH  049%=      5-min Rain = 0
KFR1 210629Z 19014KT 06/M04 A299 RMK A01 T00591040  RH  049%=      5-min Rain = 0
KFR1 210630Z 19015KT 06/M04 A299 RMK A01 T00591040  RH  049%=      5-min Rain = 0
KFR1 210631Z 19015KT 06/M04 A299 RMK A01 T00591040  RH  049%=      5-min Rain = 0
KFR1 210632Z 19014G19KT 06/M04 A2989 RMK A01 T00591040  RH  049%=      5-min Rain = 0
KFR1 210633Z 19014KT 06/M04 A2989 RMK A01 T00591040  RH  049%=      5-min Rain = 0
KFR1 210634Z 19013KT 06/M04 A2989 RMK A01 T00591040  RH  049%=      5-min Rain = 0
KFR1 210635Z 19013KT 06/M04 A2989 RMK A01 T00581040  RH  049%=      5-min Rain = 0
KFR1 210636Z 19016KT 06/M04 A2989 RMK A01 T00581040  RH  049%=      5-min Rain = 0
KFR1 210637Z 18015KT 06/M04 A2989 RMK A01 T00581040  RH  049%=      5-min Rain = 0
KFR1 210638Z 18015KT 06/M04 A2989 RMK A01 T00581040  RH  049%=      5-min Rain = 0
KFR1 210639Z 19013KT 06/M04 A2989 RMK A01 T00581040  RH  049%=      5-min Rain = 0
KFR1 210640Z 19015KT 06/M04 A2989 RMK A01 T00571040  RH  049%=      5-min Rain = 0
KFR1 210641Z 19014KT 06/M04 A2989 RMK A01 T00571040  RH  050%=      5-min Rain = 0
KFR1 210642Z 19014KT 06/M04 A2989 RMK A01 T00571040  RH  050%=      5-min Rain = 0
KFR1 210643Z 19013KT 06/M04 A2989 RMK A01 T00561040  RH  050%=      5-min Rain = 0
KFR1 210644Z 19013KT 06/M04 A2989 RMK A01 T00561040  RH  050%=      5-min Rain = 0
KFR1 210645Z 19013KT 06/M04 A2989 RMK A01 T00561040  RH  050%=      5-min Rain = 0
KFR1 210646Z 19014KT 06/M04 A2989 RMK A01 T00561040  RH  050%=      5-min Rain = 0
KFR1 210647Z 19014KT 06/M04 A2989 RMK A01 T00551040  RH  050%=      5-min Rain = 0
KFR1 210648Z 19014KT 06/M04 A2989 RMK A01 T00551040  RH  050%=      5-min Rain = 0
KFR1 210649Z 19014KT 06/M04 A2989 RMK A01 T00561040  RH  050%=      5-min Rain = 0
KFR1 210650Z 19014KT 06/M04 A2989 RMK A01 T00551040  RH  050%=      5-min Rain = 0
KFR1 210651Z 20014KT 06/M04 A2989 RMK A01 T00551040  RH  050%=      5-min Rain = 0
KFR1 210652Z 20013KT 05/M04 A2989 RMK A01 T00541041  RH  050%=      5-min Rain = 0
KFR1 210653Z 19014KT 06/M04 A2989 RMK A01 T00551041  RH  050%=      5-min Rain = 0
KFR1 210654Z 19012KT 06/M04 A2989 RMK A01 T00551041  RH  050%=      5-min Rain = 0
KFR1 210655Z 20013KT 06/M04 A2989 RMK A01 T00551041  RH  050%=      5-min Rain = 0
KFR1 210656Z 20012KT 06/M04 A2989 RMK A01 T00551041  RH  050%=      5-min Rain = 0
KFR1 210657Z 19012KT 06/M04 A2989 RMK A01 T00561041  RH  050%=      5-min Rain = 0
KFR1 210658Z 20012KT 06/M04 A2989 RMK A01 T00561041  RH  050%=      5-min Rain = 0
KFR1 210659Z 20011KT 06/M04 A2989 RMK A01 T00561041  RH  050%=      5-min Rain = 0
KFR1 210700Z 20012KT 06/M04 A2989 RMK A01 T00561041  RH  050%=      5-min Rain = 0
KFR1 210701Z 20011KT 06/M04 A2989 RMK A01 T00561041  RH  050%=      5-min Rain = 0
KFR1 210702Z 20012KT 06/M04 A2989 RMK A01 T00561041  RH  050%=      5-min Rain = 0
KFR1 210703Z 20010KT 06/M04 A2989 RMK A01 T00561041  RH  050%=      5-min Rain = 0
KFR1 210704Z 20011KT 06/M04 A2989 RMK A01 T00561041  RH  050%=      5-min Rain = 0
KFR1 210705Z 20011KT 06/M04 A2988 RMK A01 T00551042  RH  050%=      5-min Rain = 0
KFR1 210706Z 20011KT 06/M04 A2988 RMK A01 T00551042  RH  050%=      5-min Rain = 0
KFR1 210707Z 20011KT 06/M04 A2988 RMK A01 T00551042  RH  050%=      5-min Rain = 0
KFR1 210708Z 20012KT 06/M04 A2988 RMK A01 T00561041  RH  050%=      5-min Rain = 0
KFR1 210709Z 20012KT 06/M04 A2988 RMK A01 T00561041  RH  050%=      5-min Rain = 0
KFR1 210710Z 21013KT 06/M04 A2988 RMK A01 T00561042  RH  049%=      5-min Rain = 0
KFR1 210711Z 21013KT 06/M04 A2988 RMK A01 T00561042  RH  049%=      5-min Rain = 0
KFR1 210712Z 21014KT 06/M04 A2988 RMK A01 T00581041  RH  049%=      5-min Rain = 0
KFR1 210713Z 21012KT 06/M04 A2988 RMK A01 T00591041  RH  049%=      5-min Rain = 0
KFR1 210714Z 21012KT 06/M04 A2989 RMK A01 T00601041  RH  048%=      5-min Rain = 0
KFR1 210715Z 22011KT 06/M04 A2989 RMK A01 T00601041  RH  048%=      5-min Rain = 0
KFR1 210716Z 22011KT 06/M04 A2989 RMK A01 T00601041  RH  048%=      5-min Rain = 0
KFR1 210717Z 22010KT 06/M04 A2989 RMK A01 T00591042  RH  048%=      5-min Rain = 0
KFR1 210718Z 23009KT 06/M04 A2989 RMK A01 T00591042  RH  048%=      5-min Rain = 0
KFR1 210719Z 23009KT 06/M04 A2989 RMK A01 T00591041  RH  049%=      5-min Rain = 0
KFR1 210720Z 23010KT 06/M04 A2989 RMK A01 T00581042  RH  049%=      5-min Rain = 0
KFR1 210721Z 23010KT 06/M04 A2989 RMK A01 T00571042  RH  049%=      5-min Rain = 0
KFR1 210722Z 23008KT 06/M04 A2989 RMK A01 T00581042  RH  049%=      5-min Rain = 0
KFR1 210723Z 22009KT 06/M04 A2989 RMK A01 T00571042  RH  049%=      5-min Rain = 0
KFR1 210724Z 23009KT 06/M04 A2989 RMK A01 T00571042  RH  049%=      5-min Rain = 0
KFR1 210725Z 23009KT 06/M04 A2989 RMK A01 T00571042  RH  049%=      5-min Rain = 0
KFR1 210726Z 23009KT 06/M04 A2989 RMK A01 T00571042  RH  049%=      5-min Rain = 0
KFR1 210727Z 23008KT 06/M04 A2989 RMK A01 T00571042  RH  049%=      5-min Rain = 0
KFR1 210728Z 23008KT 06/M04 A2989 RMK A01 T00561042  RH  049%=      5-min Rain = 0
KFR1 210729Z 23009KT 06/M04 A2989 RMK A01 T00551042  RH  050%=      5-min Rain = 0
KFR1 210730Z 23009KT 06/M04 A2989 RMK A01 T00561041  RH  049%=      5-min Rain = 0
KFR1 210731Z 23010KT 06/M04 A2989 RMK A01 T00581041  RH  049%=      5-min Rain = 0
KFR1 210732Z 22010KT 06/M04 A2989 RMK A01 T00591041  RH  049%=      5-min Rain = 0
KFR1 210733Z 22010KT 06/M04 A2988 RMK A01 T00601041  RH  048%=      5-min Rain = 0
KFR1 210734Z 22009KT 06/M04 A2988 RMK A01 T00601041  RH  048%=      5-min Rain = 0
KFR1 210735Z 21010KT 06/M04 A2988 RMK A01 T00601040  RH  049%=      5-min Rain = 0
KFR1 210736Z 21010KT 06/M04 A2988 RMK A01 T00591040  RH  049%=      5-min Rain = 0
KFR1 210737Z 21010KT 06/M04 A2988 RMK A01 T00601040  RH  049%=      5-min Rain = 0
KFR1 210738Z 21011KT 06/M04 A2988 RMK A01 T00631039  RH  048%=      5-min Rain = 0
KFR1 210739Z 21010KT 07/M04 A2988 RMK A01 T00651039  RH  047%=      5-min Rain = 0
KFR1 210740Z 21011KT 07/M04 A2988 RMK A01 T00661039  RH  047%=      5-min Rain = 0
KFR1 210741Z 21010KT 07/M04 A2988 RMK A01 T00661039  RH  047%=      5-min Rain = 0
KFR1 210742Z 21011KT 07/M04 A2988 RMK A01 T00671039  RH  047%=      5-min Rain = 0
KFR1 210743Z 21012KT 07/M04 A2987 RMK A01 T00681039  RH  047%=      5-min Rain = 0
KFR1 210744Z 21012KT 07/M04 A2987 RMK A01 T00691038  RH  046%=      5-min Rain = 0
KFR1 210745Z 21011KT 07/M04 A2987 RMK A01 T00691038  RH  046%=      5-min Rain = 0
KFR1 210746Z 21011KT 07/M04 A2987 RMK A01 T00691039  RH  046%=      5-min Rain = 0
KFR1 210747Z 21011KT 07/M04 A2987 RMK A01 T00691039  RH  046%=      5-min Rain = 0
KFR1 210748Z 21012KT 07/M04 A2987 RMK A01 T00691039  RH  046%=      5-min Rain = 0
KFR1 210749Z 21012KT 07/M04 A2987 RMK A01 T00691039  RH  046%=      5-min Rain = 0
KFR1 210750Z 21013KT 07/M04 A2987 RMK A01 T00691038  RH  046%=      5-min Rain = 0
KFR1 210751Z 21012KT 07/M04 A2987 RMK A01 T00701038  RH  046%=      5-min Rain = 0
KFR1 210752Z 21014KT 07/M04 A2987 RMK A01 T00711038  RH  046%=      5-min Rain = 0
KFR1 210753Z 21012KT 07/M04 A2987 RMK A01 T00711038  RH  046%=      5-min Rain = 0
KFR1 210754Z 21013KT 07/M04 A2987 RMK A01 T00721038  RH  045%=      5-min Rain = 0
KFR1 210755Z 21013KT 07/M04 A2987 RMK A01 T00731038  RH  045%=      5-min Rain = 0
KFR1 210756Z 21013KT 07/M04 A2987 RMK A01 T00741037  RH  045%=      5-min Rain = 0
KFR1 210757Z 21014KT 07/M04 A2987 RMK A01 T00741038  RH  045%=      5-min Rain = 0
KFR1 210758Z 21013KT 08/M04 A2987 RMK A01 T00751037  RH  045%=      5-min Rain = 0
KFR1 210759Z 21013KT 08/M04 A2987 RMK A01 T00751037  RH  045%=      5-min Rain = 0
KFR1 210800Z 21013KT 08/M04 A2987 RMK A01 T00751037  RH  045%=      5-min Rain = 0
KFR1 210801Z 22013KT 08/M04 A2987 RMK A01 T00761037  RH  045%=      5-min Rain = 0
KFR1 210802Z 21013KT 08/M04 A2987 RMK A01 T00771037  RH  044%=      5-min Rain = 0
KFR1 210803Z 21013KT 08/M04 A2987 RMK A01 T00771037  RH  044%=      5-min Rain = 0
KFR1 210804Z 22012KT 08/M04 A2987 RMK A01 T00771036  RH  045%=      5-min Rain = 0
KFR1 210805Z 21011KT 08/M04 A2987 RMK A01 T00761037  RH  045%=      5-min Rain = 0
KFR1 210806Z 22011KT 08/M04 A2987 RMK A01 T00761037  RH  045%=      5-min Rain = 0
KFR1 210807Z 21012KT 08/M04 A2987 RMK A01 T00771036  RH  045%=      5-min Rain = 0
KFR1 210808Z 21012KT 08/M04 A2987 RMK A01 T00771036  RH  045%=      5-min Rain = 0
KFR1 210809Z 21012KT 08/M04 A2987 RMK A01 T00761036  RH  045%=      5-min Rain = 0
KFR1 210810Z 21013KT 08/M04 A2987 RMK A01 T00771036  RH  045%=      5-min Rain = 0
KFR1 210811Z 21013KT 08/M04 A2987 RMK A01 T00781036  RH  044%=      5-min Rain = 0
KFR1 210812Z 22012KT 08/M04 A2987 RMK A01 T00781036  RH  044%=      5-min Rain = 0
KFR1 210813Z 21012KT 08/M04 A2987 RMK A01 T00781036  RH  044%=      5-min Rain = 0
KFR1 210814Z 21012KT 08/M04 A2987 RMK A01 T00781036  RH  044%=      5-min Rain = 0
KFR1 210815Z 22013KT 08/M04 A2986 RMK A01 T00781036  RH  044%=      5-min Rain = 0
KFR1 210816Z 21011KT 08/M04 A2986 RMK A01 T00791035  RH  044%=      5-min Rain = 0
KFR1 210817Z 22012KT 08/M04 A2986 RMK A01 T00781035  RH  045%=      5-min Rain = 0
KFR1 210818Z 21012KT 08/M04 A2986 RMK A01 T00781035  RH  045%=      5-min Rain = 0
KFR1 210819Z 22012KT 08/M04 A2986 RMK A01 T00791035  RH  044%=      5-min Rain = 0
KFR1 210820Z 22013KT 08/M04 A2986 RMK A01 T00791035  RH  044%=      5-min Rain = 0
KFR1 210821Z 22012KT 08/M04 A2987 RMK A01 T00791035  RH  044%=      5-min Rain = 0
KFR1 210822Z 22012KT 08/M04 A2986 RMK A01 T00791035  RH  044%=      5-min Rain = 0
KFR1 210823Z 22011KT 08/M04 A2986 RMK A01 T00781035  RH  045%=      5-min Rain = 0
KFR1 210824Z 22012KT 08/M04 A2986 RMK A01 T00771035  RH  045%=      5-min Rain = 0
KFR1 210825Z 22011KT 08/M04 A2986 RMK A01 T00771035  RH  045%=      5-min Rain = 0
KFR1 210826Z 22012KT 08/M04 A2986 RMK A01 T00771035  RH  045%=      5-min Rain = 0
KFR1 210827Z 22011KT 08/M04 A2986 RMK A01 T00771035  RH  045%=      5-min Rain = 0
KFR1 210828Z 22012KT 08/M04 A2986 RMK A01 T00761035  RH  045%=      5-min Rain = 0
KFR1 210829Z 22012KT 08/M04 A2986 RMK A01 T00761035  RH  045%=      5-min Rain = 0
KFR1 210830Z 22012KT 08/M04 A2986 RMK A01 T00761035  RH  045%=      5-min Rain = 0
KFR1 210831Z 22010KT 08/M04 A2986 RMK A01 T00771035  RH  045%=      5-min Rain = 0
KFR1 210832Z 22011KT 08/M04 A2986 RMK A01 T00761035  RH  045%=      5-min Rain = 0
KFR1 210833Z 23012KT 08/M04 A2986 RMK A01 T00771035  RH  045%=      5-min Rain = 0
KFR1 210834Z 22012KT 08/M03 A2986 RMK A01 T00771034  RH  045%=      5-min Rain = 0
KFR1 210835Z 23011KT 08/M03 A2986 RMK A01 T00781034  RH  045%=      5-min Rain = 0
KFR1 210836Z 22011KT 08/M04 A2986 RMK A01 T00781035  RH  045%=      5-min Rain = 0
KFR1 210837Z 22012KT 08/M04 A2985 RMK A01 T00781035  RH  045%=      5-min Rain = 0
KFR1 210838Z 22012KT 08/M04 A2985 RMK A01 T00771035  RH  045%=      5-min Rain = 0
KFR1 210839Z 22012KT 08/M03 A2985 RMK A01 T00771034  RH  045%=      5-min Rain = 0
KFR1 210840Z 22013KT 08/M03 A2985 RMK A01 T00771034  RH  045%=      5-min Rain = 0
KFR1 210841Z 22012KT 08/M04 A2985 RMK A01 T00761035  RH  045%=      5-min Rain = 0
KFR1 210842Z 22013KT 08/M03 A2985 RMK A01 T00771034  RH  045%=      5-min Rain = 0
KFR1 210843Z 22013KT 08/M03 A2985 RMK A01 T00771034  RH  045%=      5-min Rain = 0
KFR1 210844Z 22013KT 08/M03 A2985 RMK A01 T00771034  RH  045%=      5-min Rain = 0
KFR1 210845Z 22014KT 08/M03 A2985 RMK A01 T00781034  RH  045%=      5-min Rain = 0
KFR1 210846Z 22015KT 08/M03 A2985 RMK A01 T00771034  RH  045%=      5-min Rain = 0
KFR1 210847Z 22015KT 08/M03 A2985 RMK A01 T00781034  RH  045%=      5-min Rain = 0
KFR1 210848Z 22016KT 08/M03 A2985 RMK A01 T00781033  RH  045%=      5-min Rain = 0
KFR1 210849Z 22015KT 08/M03 A2985 RMK A01 T00781034  RH  045%=      5-min Rain = 0
KFR1 210850Z 22014KT 08/M03 A2985 RMK A01 T00781034  RH  045%=      5-min Rain = 0
KFR1 210851Z 22016KT 08/M03 A2985 RMK A01 T00781034  RH  045%=      5-min Rain = 0
KFR1 210852Z 22016KT 08/M03 A2985 RMK A01 T00781034  RH  045%=      5-min Rain = 0
KFR1 210853Z 22017KT 08/M03 A2985 RMK A01 T00781034  RH  045%=      5-min Rain = 0
KFR1 210854Z 22016KT 08/M03 A2985 RMK A01 T00791034  RH  045%=      5-min Rain = 0
KFR1 210855Z 22015KT 08/M03 A2985 RMK A01 T00801034  RH  044%=      5-min Rain = 0
KFR1 210856Z 22017KT 08/M03 A2985 RMK A01 T00801034  RH  044%=      5-min Rain = 0
KFR1 210857Z 22016KT 08/M03 A2984 RMK A01 T00811034  RH  044%=      5-min Rain = 0
KFR1 210858Z 22016KT 08/M03 A2984 RMK A01 T00801034  RH  044%=      5-min Rain = 0
KFR1 210859Z 22016KT 08/M03 A2984 RMK A01 T00801034  RH  044%=      5-min Rain = 0
KFR1 210900Z 22017KT 08/M03 A2984 RMK A01 T00801034  RH  044%=      5-min Rain = 0
KFR1 210901Z 22016KT 08/M03 A2984 RMK A01 T00801034  RH  044%=      5-min Rain = 0
KFR1 210902Z 22015KT 08/M03 A2984 RMK A01 T00801034  RH  044%=      5-min Rain = 0
KFR1 210903Z 22016KT 08/M03 A2984 RMK A01 T00801034  RH  044%=      5-min Rain = 0
KFR1 210904Z 22015G20KT 08/M03 A2984 RMK A01 T00811033  RH  044%=      5-min Rain = 0
KFR1 210905Z 22016KT 08/M03 A2984 RMK A01 T00821034  RH  044%=      5-min Rain = 0
KFR1 210906Z 22017KT 08/M03 A2984 RMK A01 T00821033  RH  044%=      5-min Rain = 0
KFR1 210907Z 22017KT 08/M03 A2984 RMK A01 T00831033  RH  044%=      5-min Rain = 0
KFR1 210908Z 22016KT 08/M03 A2984 RMK A01 T00831033  RH  044%=      5-min Rain = 0
KFR1 210909Z 22016KT 08/M03 A2984 RMK A01 T00831034  RH  043%=      5-min Rain = 0
KFR1 210910Z 22017KT 08/M03 A2984 RMK A01 T00831034  RH  044%=      5-min Rain = 0
KFR1 210911Z 22017KT 08/M03 A2983 RMK A01 T00821034  RH  044%=      5-min Rain = 0
KFR1 210912Z 22017KT 08/M03 A2983 RMK A01 T00831033  RH  044%=      5-min Rain = 0
KFR1 210913Z 22016KT 08/M03 A2983 RMK A01 T00841033  RH  043%=      5-min Rain = 0
KFR1 210914Z 22016KT 08/M03 A2983 RMK A01 T00841033  RH  043%=      5-min Rain = 0
KFR1 210915Z 22016KT 08/M03 A2984 RMK A01 T00841033  RH  043%=      5-min Rain = 0
KFR1 210916Z 22016KT 08/M03 A2984 RMK A01 T00841033  RH  043%=      5-min Rain = 0
KFR1 210917Z 22016KT 08/M03 A2984 RMK A01 T00841034  RH  043%=      5-min Rain = 0
KFR1 210918Z 22015KT 08/M03 A2984 RMK A01 T00841033  RH  044%=      5-min Rain = 0
KFR1 210919Z 22015KT 08/M03 A2983 RMK A01 T00831033  RH  044%=      5-min Rain = 0
KFR1 210920Z 22016KT 08/M03 A2983 RMK A01 T00831033  RH  044%=      5-min Rain = 0
KFR1 210921Z 21016KT 08/M03 A2983 RMK A01 T00831033  RH  044%=      5-min Rain = 0
KFR1 210922Z 21016KT 08/M03 A2983 RMK A01 T00831033  RH  044%=      5-min Rain = 0
KFR1 210923Z 21015KT 08/M03 A2983 RMK A01 T00831033  RH  044%=      5-min Rain = 0
KFR1 210924Z 21016KT 08/M03 A2983 RMK A01 T00831033  RH  044%=      5-min Rain = 0
KFR1 210925Z 21015KT 08/M03 A2983 RMK A01 T00841032  RH  044%=      5-min Rain = 0
KFR1 210926Z 21015KT 08/M03 A2983 RMK A01 T00831032  RH  044%=      5-min Rain = 0
KFR1 210927Z 21014KT 08/M03 A2983 RMK A01 T00831033  RH  044%=      5-min Rain = 0
KFR1 210928Z 21014KT 08/M03 A2983 RMK A01 T00821033  RH  044%=      5-min Rain = 0
KFR1 210929Z 21013KT 08/M03 A2983 RMK A01 T00821033  RH  044%=      5-min Rain = 0
KFR1 210930Z 22014KT 08/M03 A2983 RMK A01 T00811033  RH  044%=      5-min Rain = 0
KFR1 210931Z 21013KT 08/M03 A2983 RMK A01 T00811033  RH  045%=      5-min Rain = 0
KFR1 210932Z 21013KT 08/M03 A2983 RMK A01 T00811033  RH  045%=      5-min Rain = 0
KFR1 210933Z 21013KT 08/M03 A2983 RMK A01 T00811033  RH  045%=      5-min Rain = 0
KFR1 210934Z 21013KT 08/M03 A2983 RMK A01 T00811033  RH  045%=      5-min Rain = 0
KFR1 210935Z 21013KT 08/M03 A2983 RMK A01 T00801033  RH  045%=      5-min Rain = 0
KFR1 210936Z 21013KT 08/M03 A2982 RMK A01 T00811032  RH  045%=      5-min Rain = 0
KFR1 210937Z 21013KT 08/M03 A2982 RMK A01 T00801033  RH  045%=      5-min Rain = 0
KFR1 210938Z 21013KT 08/M03 A2982 RMK A01 T00791033  RH  045%=      5-min Rain = 0
KFR1 210939Z 21014KT 08/M03 A2982 RMK A01 T00791033  RH  045%=      5-min Rain = 0
KFR1 210940Z 21014KT 08/M03 A2982 RMK A01 T00791032  RH  045%=      5-min Rain = 0
KFR1 210941Z 21014KT 08/M03 A2982 RMK A01 T00791032  RH  045%=      5-min Rain = 0
KFR1 210942Z 21015KT 08/M03 A2982 RMK A01 T00791032  RH  045%=      5-min Rain = 0
KFR1 210943Z 21014KT 08/M03 A2982 RMK A01 T00791032  RH  045%=      5-min Rain = 0
KFR1 210944Z 21015KT 08/M03 A2981 RMK A01 T00801031  RH  045%=      5-min Rain = 0
KFR1 210945Z 21015KT 08/M03 A2981 RMK A01 T00801032  RH  045%=      5-min Rain = 0
KFR1 210946Z 21014KT 08/M03 A2981 RMK A01 T00801031  RH  045%=      5-min Rain = 0
KFR1 210947Z 21014KT 08/M03 A2981 RMK A01 T00801031  RH  045%=      5-min Rain = 0
KFR1 210948Z 21014KT 08/M03 A2981 RMK A01 T00801031  RH  045%=      5-min Rain = 0
KFR1 210949Z 21014KT 08/M03 A2981 RMK A01 T00801031  RH  046%=      5-min Rain = 0
KFR1 210950Z 22013KT 08/M03 A2981 RMK A01 T00801031  RH  046%=      5-min Rain = 0
KFR1 210951Z 21014KT 08/M03 A2981 RMK A01 T00801031  RH  045%=      5-min Rain = 0
KFR1 210952Z 21014KT 08/M03 A2981 RMK A01 T00801031  RH  046%=      5-min Rain = 0
KFR1 210953Z 21013KT 08/M03 A2981 RMK A01 T00791031  RH  046%=      5-min Rain = 0
KFR1 210954Z 21013KT 08/M03 A2981 RMK A01 T00791030  RH  046%=      5-min Rain = 0
KFR1 210955Z 21012KT 08/M03 A2981 RMK A01 T00781031  RH  046%=      5-min Rain = 0
KFR1 210956Z 21013KT 08/M03 A2981 RMK A01 T00781030  RH  046%=      5-min Rain = 0
KFR1 210957Z 21013KT 08/M03 A2981 RMK A01 T00781031  RH  046%=      5-min Rain = 0
KFR1 210958Z 21012KT 08/M03 A2981 RMK A01 T00781031  RH  046%=      5-min Rain = 0
KFR1 210959Z 21013KT 08/M03 A2981 RMK A01 T00771030  RH  046%=      5-min Rain = 0
KFR1 211000Z 21013KT 08/M03 A2981 RMK A01 T00771030  RH  047%=      5-min Rain = 0
KFR1 211001Z 21013KT 08/M03 A2981 RMK A01 T00771030  RH  047%=      5-min Rain = 0
KFR1 211002Z 21013KT 08/M03 A2981 RMK A01 T00771030  RH  047%=      5-min Rain = 0
KFR1 211003Z 21013KT 08/M03 A2981 RMK A01 T00771030  RH  047%=      5-min Rain = 0
KFR1 211004Z 21013KT 08/M03 A2981 RMK A01 T00771030  RH  047%=      5-min Rain = 0
KFR1 211005Z 21013KT 08/M03 A2981 RMK A01 T00771030  RH  047%=      5-min Rain = 0
KFR1 211006Z 21012KT 08/M03 A2981 RMK A01 T00771030  RH  047%=      5-min Rain = 0
KFR1 211007Z 21012KT 08/M03 A2981 RMK A01 T00771030  RH  047%=      5-min Rain = 0
KFR1 211008Z 21011KT 08/M03 A2981 RMK A01 T00771030  RH  047%=      5-min Rain = 0
KFR1 211009Z 21012KT 08/M03 A2981 RMK A01 T00771029  RH  047%=      5-min Rain = 0
KFR1 211010Z 21011KT 08/M03 A2981 RMK A01 T00761030  RH  047%=      5-min Rain = 0
KFR1 211011Z 21011KT 08/M03 A2981 RMK A01 T00761030  RH  047%=      5-min Rain = 0
KFR1 211012Z 21012KT 08/M03 A2981 RMK A01 T00761029  RH  047%=      5-min Rain = 0
KFR1 211013Z 21011KT 08/M03 A2981 RMK A01 T00761029  RH  047%=      5-min Rain = 0
KFR1 211014Z 21011KT 08/M03 A2981 RMK A01 T00761029  RH  047%=      5-min Rain = 0
KFR1 211015Z 21011KT 08/M03 A298 RMK A01 T00751029  RH  047%=      5-min Rain = 0
KFR1 211016Z 21012KT 08/M03 A298 RMK A01 T00751029  RH  048%=      5-min Rain = 0
KFR1 211017Z 21012KT 08/M03 A298 RMK A01 T00751029  RH  048%=      5-min Rain = 0
KFR1 211018Z 21012KT 08/M03 A298 RMK A01 T00751029  RH  048%=      5-min Rain = 0
KFR1 211019Z 21012KT 08/M03 A298 RMK A01 T00751029  RH  048%=      5-min Rain = 0
KFR1 211020Z 21012KT 08/M03 A298 RMK A01 T00751030  RH  048%=      5-min Rain = 0
KFR1 211021Z 21012KT 08/M03 A298 RMK A01 T00751029  RH  048%=      5-min Rain = 0
KFR1 211022Z 21011KT 08/M03 A298 RMK A01 T00751030  RH  047%=      5-min Rain = 0
KFR1 211023Z 21011KT 08/M03 A298 RMK A01 T00751030  RH  047%=      5-min Rain = 0
KFR1 211024Z 21011KT 07/M03 A298 RMK A01 T00741030  RH  048%=      5-min Rain = 0
KFR1 211025Z 22012KT 07/M03 A298 RMK A01 T00741030  RH  048%=      5-min Rain = 0
KFR1 211026Z 22011KT 08/M03 A298 RMK A01 T00751030  RH  047%=      5-min Rain = 0
KFR1 211027Z 21012KT 08/M03 A298 RMK A01 T00751031  RH  047%=      5-min Rain = 0
KFR1 211028Z 21012KT 08/M03 A298 RMK A01 T00751031  RH  047%=      5-min Rain = 0
KFR1 211029Z 22012KT 08/M03 A298 RMK A01 T00751031  RH  047%=      5-min Rain = 0
KFR1 211030Z 21012KT 08/M03 A298 RMK A01 T00751031  RH  047%=      5-min Rain = 0
KFR1 211031Z 22010KT 08/M03 A298 RMK A01 T00751031  RH  047%=      5-min Rain = 0
KFR1 211032Z 21010KT 07/M03 A298 RMK A01 T00741031  RH  047%=      5-min Rain = 0
KFR1 211033Z 21009KT 07/M03 A298 RMK A01 T00731032  RH  047%=      5-min Rain = 0
KFR1 211034Z 21009KT 07/M03 A298 RMK A01 T00731031  RH  047%=      5-min Rain = 0
KFR1 211035Z 21009KT 07/M03 A298 RMK A01 T00731032  RH  047%=      5-min Rain = 0
KFR1 211036Z 21010KT 07/M03 A298 RMK A01 T00731032  RH  047%=      5-min Rain = 0
KFR1 211037Z 20009KT 07/M03 A298 RMK A01 T00731032  RH  047%=      5-min Rain = 0
KFR1 211038Z 20008KT 07/M03 A298 RMK A01 T00721032  RH  047%=      5-min Rain = 0
KFR1 211039Z 20006KT 07/M03 A298 RMK A01 T00721032  RH  047%=      5-min Rain = 0
KFR1 211040Z 19007KT 07/M03 A298 RMK A01 T00691033  RH  048%=      5-min Rain = 0
KFR1 211041Z 20007KT 07/M03 A298 RMK A01 T00661033  RH  049%=      5-min Rain = 0
KFR1 211042Z 20008KT 07/M03 A298 RMK A01 T00651033  RH  050%=      5-min Rain = 0
KFR1 211043Z 21009KT 06/M03 A298 RMK A01 T00641034  RH  050%=      5-min Rain = 0
KFR1 211044Z 21009KT 06/M03 A298 RMK A01 T00641034  RH  050%=      5-min Rain = 0
KFR1 211045Z 21009KT 06/M03 A298 RMK A01 T00641034  RH  049%=      5-min Rain = 0
KFR1 211046Z 21009KT 07/M03 A298 RMK A01 T00651034  RH  049%=      5-min Rain = 0
KFR1 211047Z 21008KT 06/M03 A298 RMK A01 T00641034  RH  049%=      5-min Rain = 0
KFR1 211048Z 21009KT 06/M04 A298 RMK A01 T00641035  RH  049%=      5-min Rain = 0
KFR1 211049Z 21008KT 06/M04 A298 RMK A01 T00631035  RH  049%=      5-min Rain = 0
KFR1 211050Z 21009KT 06/M04 A2979 RMK A01 T00631035  RH  049%=      5-min Rain = 0
KFR1 211051Z 21009KT 06/M04 A298 RMK A01 T00631036  RH  049%=      5-min Rain = 0
KFR1 211052Z 21009KT 06/M04 A298 RMK A01 T00631036  RH  049%=      5-min Rain = 0
KFR1 211053Z 21008KT 06/M04 A2979 RMK A01 T00621036  RH  049%=      5-min Rain = 0
KFR1 211054Z 21009KT 06/M04 A2979 RMK A01 T00621036  RH  049%=      5-min Rain = 0
KFR1 211055Z 21008KT 06/M04 A2979 RMK A01 T00621036  RH  049%=      5-min Rain = 0
KFR1 211056Z 21009KT 06/M04 A2979 RMK A01 T00621036  RH  049%=      5-min Rain = 0
KFR1 211057Z 21008KT 06/M04 A2979 RMK A01 T00611037  RH  049%=      5-min Rain = 0
KFR1 211058Z 20009KT 06/M04 A2979 RMK A01 T00611037  RH  049%=      5-min Rain = 0
KFR1 211059Z 20009KT 06/M04 A2979 RMK A01 T00611037  RH  050%=      5-min Rain = 0
KFR1 211100Z 20010KT 06/M04 A2979 RMK A01 T00611037  RH  050%=      5-min Rain = 0
KFR1 211101Z 20010KT 06/M04 A2979 RMK A01 T00601037  RH  050%=      5-min Rain = 0
KFR1 211102Z 20010KT 06/M04 A2979 RMK A01 T00601037  RH  050%=      5-min Rain = 0
KFR1 211103Z 20011KT 06/M04 A2979 RMK A01 T00601037  RH  050%=      5-min Rain = 0
KFR1 211104Z 20011KT 06/M04 A2979 RMK A01 T00591037  RH  050%=      5-min Rain = 0
KFR1 211105Z 20011KT 06/M04 A2979 RMK A01 T00601037  RH  050%=      5-min Rain = 0
KFR1 211106Z 20011KT 06/M04 A2978 RMK A01 T00601038  RH  050%=      5-min Rain = 0
KFR1 211107Z 20011KT 06/M04 A2978 RMK A01 T00601038  RH  049%=      5-min Rain = 0
KFR1 211108Z 20011KT 06/M04 A2978 RMK A01 T00601038  RH  049%=      5-min Rain = 0
KFR1 211109Z 20012KT 06/M04 A2978 RMK A01 T00611038  RH  049%=      5-min Rain = 0
KFR1 211110Z 20012KT 06/M04 A2978 RMK A01 T00611038  RH  049%=      5-min Rain = 0
KFR1 211111Z 20013KT 06/M04 A2978 RMK A01 T00611038  RH  049%=      5-min Rain = 0
KFR1 211112Z 20013KT 06/M04 A2978 RMK A01 T00611038  RH  049%=      5-min Rain = 0
KFR1 211113Z 20011KT 06/M04 A2978 RMK A01 T00611038  RH  049%=      5-min Rain = 0
KFR1 211114Z 20012KT 06/M04 A2978 RMK A01 T00611038  RH  049%=      5-min Rain = 0
KFR1 211115Z 20012KT 06/M04 A2978 RMK A01 T00611038  RH  049%=      5-min Rain = 0
KFR1 211116Z 20012KT 06/M04 A2978 RMK A01 T00601038  RH  049%=      5-min Rain = 0
KFR1 211117Z 20011KT 06/M04 A2978 RMK A01 T00601038  RH  049%=      5-min Rain = 0
KFR1 211118Z 20013KT 06/M04 A2978 RMK A01 T00601038  RH  049%=      5-min Rain = 0
KFR1 211119Z 20013KT 06/M04 A2978 RMK A01 T00601038  RH  049%=      5-min Rain = 0
KFR1 211120Z 20013KT 06/M04 A2978 RMK A01 T00601038  RH  049%=      5-min Rain = 0
KFR1 211121Z 20012KT 06/M04 A2978 RMK A01 T00601038  RH  049%=      5-min Rain = 0
KFR1 211122Z 21011KT 06/M04 A2978 RMK A01 T00601038  RH  049%=      5-min Rain = 0
KFR1 211123Z 21010KT 06/M04 A2977 RMK A01 T00601038  RH  049%=      5-min Rain = 0
KFR1 211124Z 21011KT 06/M04 A2977 RMK A01 T00601038  RH  049%=      5-min Rain = 0
KFR1 211125Z 21009KT 06/M04 A2977 RMK A01 T00601038  RH  049%=      5-min Rain = 0
KFR1 211126Z 21012KT 06/M04 A2977 RMK A01 T00601039  RH  049%=      5-min Rain = 0
KFR1 211127Z 20013KT 06/M04 A2977 RMK A01 T00601038  RH  049%=      5-min Rain = 0
KFR1 211128Z 20012KT 06/M04 A2977 RMK A01 T00601038  RH  049%=      5-min Rain = 0
KFR1 211129Z 20013KT 06/M04 A2977 RMK A01 T00601039  RH  049%=      5-min Rain = 0
KFR1 211130Z 20011KT 06/M04 A2977 RMK A01 T00601039  RH  049%=      5-min Rain = 0
KFR1 211131Z 20012KT 06/M04 A2977 RMK A01 T00601039  RH  049%=      5-min Rain = 0
KFR1 211132Z 20012KT 06/M04 A2977 RMK A01 T00601038  RH  049%=      5-min Rain = 0
KFR1 211133Z 20012KT 06/M04 A2977 RMK A01 T00601038  RH  049%=      5-min Rain = 0
KFR1 211134Z 20012KT 06/M04 A2977 RMK A01 T00601039  RH  049%=      5-min Rain = 0
KFR1 211135Z 20012KT 06/M04 A2977 RMK A01 T00601038  RH  049%=      5-min Rain = 0
KFR1 211136Z 20011KT 06/M04 A2977 RMK A01 T00601039  RH  049%=      5-min Rain = 0
KFR1 211137Z 20012KT 06/M04 A2977 RMK A01 T00601039  RH  049%=      5-min Rain = 0
KFR1 211138Z 20012KT 06/M04 A2977 RMK A01 T00601039  RH  049%=      5-min Rain = 0
KFR1 211139Z 20011KT 06/M04 A2977 RMK A01 T00601039  RH  049%=      5-min Rain = 0
KFR1 211140Z 20012KT 06/M04 A2977 RMK A01 T00601039  RH  049%=      5-min Rain = 0
KFR1 211141Z 20012KT 06/M04 A2977 RMK A01 T00601039  RH  049%=      5-min Rain = 0
KFR1 211142Z 20011KT 06/M04 A2977 RMK A01 T00591039  RH  049%=      5-min Rain = 0
KFR1 211143Z 20011KT 06/M04 A2977 RMK A01 T00591039  RH  049%=      5-min Rain = 0
KFR1 211144Z 20010KT 06/M04 A2977 RMK A01 T00591039  RH  050%=      5-min Rain = 0
KFR1 211145Z 20010KT 06/M04 A2976 RMK A01 T00581039  RH  050%=      5-min Rain = 0
KFR1 211146Z 20009KT 06/M04 A2976 RMK A01 T00591039  RH  050%=      5-min Rain = 0
KFR1 211147Z 21010KT 06/M04 A2976 RMK A01 T00581039  RH  050%=      5-min Rain = 0
KFR1 211148Z 20009KT 06/M04 A2976 RMK A01 T00581038  RH  050%=      5-min Rain = 0
KFR1 211149Z 20009KT 06/M04 A2976 RMK A01 T00581038  RH  050%=      5-min Rain = 0
KFR1 211150Z 20009KT 06/M04 A2976 RMK A01 T00581039  RH  050%=      5-min Rain = 0
KFR1 211151Z 20009KT 06/M04 A2976 RMK A01 T00581039  RH  050%=      5-min Rain = 0
KFR1 211152Z 20008KT 06/M04 A2976 RMK A01 T00581038  RH  050%=      5-min Rain = 0
KFR1 211153Z 20009KT 06/M04 A2976 RMK A01 T00581038  RH  050%=      5-min Rain = 0
KFR1 211154Z 21008KT 06/M04 A2976 RMK A01 T00581038  RH  050%=      5-min Rain = 0
KFR1 211155Z 20008KT 06/M04 A2976 RMK A01 T00571038  RH  050%=      5-min Rain = 0
KFR1 211156Z 21008KT 06/M04 A2977 RMK A01 T00581038  RH  050%=      5-min Rain = 0
KFR1 211157Z 20007KT 06/M04 A2977 RMK A01 T00591038  RH  050%=      5-min Rain = 0
KFR1 211158Z 21008KT 06/M04 A2977 RMK A01 T00591038  RH  050%=      5-min Rain = 0
KFR1 211159Z 21007KT 06/M04 A2977 RMK A01 T00591038  RH  050%=      5-min Rain = 0
KFR1 211200Z 21007KT 06/M04 A2977 RMK A01 T00601037  RH  050%=      5-min Rain = 0
KFR1 211201Z 21007KT 06/M04 A2977 RMK A01 T00591038  RH  050%=      5-min Rain = 0
KFR1 211202Z 21006KT 06/M04 A2977 RMK A01 T00591037  RH  050%=      5-min Rain = 0
KFR1 211203Z 21006KT 06/M04 A2977 RMK A01 T00591037  RH  050%=      5-min Rain = 0
KFR1 211204Z 21006KT 06/M04 A2977 RMK A01 T00581037  RH  050%=      5-min Rain = 0
KFR1 211205Z 21008KT 06/M04 A2977 RMK A01 T00581037  RH  050%=      5-min Rain = 0
KFR1 211206Z 20007KT 06/M04 A2977 RMK A01 T00581037  RH  050%=      5-min Rain = 0
KFR1 211207Z 21008KT 06/M04 A2977 RMK A01 T00581037  RH  051%=      5-min Rain = 0
KFR1 211208Z 21007KT 06/M04 A2977 RMK A01 T00571037  RH  051%=      5-min Rain = 0
KFR1 211209Z 20008KT 06/M04 A2977 RMK A01 T00581037  RH  051%=      5-min Rain = 0
KFR1 211210Z 20008KT 06/M04 A2977 RMK A01 T00581037  RH  050%=      5-min Rain = 0
KFR1 211211Z 20007KT 06/M04 A2977 RMK A01 T00571037  RH  051%=      5-min Rain = 0
KFR1 211212Z 20008KT 06/M04 A2977 RMK A01 T00561037  RH  051%=      5-min Rain = 0
KFR1 211213Z 20008KT 06/M04 A2977 RMK A01 T00551037  RH  051%=      5-min Rain = 0
KFR1 211214Z 20008KT 06/M04 A2977 RMK A01 T00561037  RH  051%=      5-min Rain = 0
KFR1 211215Z 20009KT 06/M04 A2977 RMK A01 T00561037  RH  051%=      5-min Rain = 0
KFR1 211216Z 20009KT 06/M04 A2977 RMK A01 T00561037  RH  051%=      5-min Rain = 0
KFR1 211217Z 20009KT 06/M04 A2977 RMK A01 T00561037  RH  051%=      5-min Rain = 0
KFR1 211218Z 20010KT 06/M04 A2977 RMK A01 T00561036  RH  052%=      5-min Rain = 0
KFR1 211219Z 21010KT 06/M04 A2977 RMK A01 T00561036  RH  052%=      5-min Rain = 0
KFR1 211220Z 21010KT 06/M04 A2977 RMK A01 T00561036  RH  052%=      5-min Rain = 0
KFR1 211221Z 20010KT 06/M04 A2976 RMK A01 T00571036  RH  051%=      5-min Rain = 0
KFR1 211222Z 20010KT 06/M04 A2976 RMK A01 T00581035  RH  051%=      5-min Rain = 0
KFR1 211223Z 20010KT 06/M04 A2976 RMK A01 T00571036  RH  051%=      5-min Rain = 0
KFR1 211224Z 20010KT 06/M04 A2976 RMK A01 T00561036  RH  052%=      5-min Rain = 0
KFR1 211225Z 21011KT 06/M04 A2976 RMK A01 T00561036  RH  052%=      5-min Rain = 0
KFR1 211226Z 21010KT 06/M04 A2976 RMK A01 T00581035  RH  051%=      5-min Rain = 0
KFR1 211227Z 20010KT 06/M04 A2976 RMK A01 T00601035  RH  051%=      5-min Rain = 0
KFR1 211228Z 21009KT 06/M04 A2976 RMK A01 T00601035  RH  050%=      5-min Rain = 0
KFR1 211229Z 21010KT 06/M04 A2976 RMK A01 T00601035  RH  050%=      5-min Rain = 0
KFR1 211230Z 21010KT 06/M04 A2976 RMK A01 T00601035  RH  050%=      5-min Rain = 0
KFR1 211231Z 20010KT 06/M04 A2976 RMK A01 T00591035  RH  051%=      5-min Rain = 0
KFR1 211232Z 20010KT 06/M04 A2976 RMK A01 T00591035  RH  051%=      5-min Rain = 0
KFR1 211233Z 20009KT 06/M04 A2976 RMK A01 T00591035  RH  051%=      5-min Rain = 0
KFR1 211234Z 21009KT 06/M04 A2976 RMK A01 T00591035  RH  051%=      5-min Rain = 0
KFR1 211235Z 21010KT 06/M04 A2976 RMK A01 T00591035  RH  051%=      5-min Rain = 0
KFR1 211236Z 21010KT 06/M04 A2976 RMK A01 T00591035  RH  051%=      5-min Rain = 0
KFR1 211237Z 21010KT 06/M03 A2976 RMK A01 T00601034  RH  051%=      5-min Rain = 0
KFR1 211238Z 22008KT 06/M03 A2976 RMK A01 T00611034  RH  051%=      5-min Rain = 0
KFR1 211239Z 21008KT 06/M03 A2976 RMK A01 T00621034  RH  050%=      5-min Rain = 0
KFR1 211240Z 22008KT 06/M03 A2976 RMK A01 T00641034  RH  050%=      5-min Rain = 0
KFR1 211241Z 21008KT 06/M03 A2976 RMK A01 T00641034  RH  049%=      5-min Rain = 0
KFR1 211242Z 21008KT 06/M04 A2976 RMK A01 T00631035  RH  049%=      5-min Rain = 0
KFR1 211243Z 21009KT 06/M04 A2976 RMK A01 T00621035  RH  050%=      5-min Rain = 0
KFR1 211244Z 21009KT 06/M04 A2976 RMK A01 T00611035  RH  050%=      5-min Rain = 0
KFR1 211245Z 21010KT 06/M04 A2976 RMK A01 T00611035  RH  050%=      5-min Rain = 0
KFR1 211246Z 21011KT 06/M04 A2977 RMK A01 T00601035  RH  050%=      5-min Rain = 0
KFR1 211247Z 21011KT 06/M04 A2976 RMK A01 T00611036  RH  050%=      5-min Rain = 0
KFR1 211248Z 21010KT 06/M04 A2976 RMK A01 T00601036  RH  050%=      5-min Rain = 0
KFR1 211249Z 21010KT 06/M04 A2976 RMK A01 T00601036  RH  050%=      5-min Rain = 0
KFR1 211250Z 21010KT 06/M04 A2976 RMK A01 T00591036  RH  050%=      5-min Rain = 0
KFR1 211251Z 20010KT 06/M04 A2976 RMK A01 T00591036  RH  050%=      5-min Rain = 0
KFR1 211252Z 21009KT 06/M04 A2976 RMK A01 T00581036  RH  051%=      5-min Rain = 0
KFR1 211253Z 21010KT 06/M04 A2976 RMK A01 T00571036  RH  051%=      5-min Rain = 0
KFR1 211254Z 20009KT 06/M04 A2976 RMK A01 T00571037  RH  051%=      5-min Rain = 0
KFR1 211255Z 21010KT 06/M04 A2976 RMK A01 T00571037  RH  051%=      5-min Rain = 0
KFR1 211256Z 21012KT 06/M04 A2976 RMK A01 T00561037  RH  051%=      5-min Rain = 0
KFR1 211257Z 21011KT 06/M04 A2976 RMK A01 T00561037  RH  051%=      5-min Rain = 0
KFR1 211258Z 21013KT 06/M04 A2976 RMK A01 T00571036  RH  051%=      5-min Rain = 0
KFR1 211259Z 21013KT 06/M04 A2976 RMK A01 T00581037  RH  051%=      5-min Rain = 0
KFR1 211300Z 21013KT 06/M04 A2976 RMK A01 T00581037  RH  050%=      5-min Rain = 0
KFR1 211301Z 21012KT 06/M04 A2976 RMK A01 T00581037  RH  050%=      5-min Rain = 0
KFR1 211302Z 22012KT 06/M04 A2976 RMK A01 T00581037  RH  050%=      5-min Rain = 0
KFR1 211303Z 22012KT 06/M04 A2976 RMK A01 T00581037  RH  050%=      5-min Rain = 0
KFR1 211304Z 22012KT 06/M04 A2976 RMK A01 T00581037  RH  050%=      5-min Rain = 0
KFR1 211305Z 22012KT 06/M04 A2976 RMK A01 T00581037  RH  050%=      5-min Rain = 0
KFR1 211306Z 22011KT 06/M04 A2976 RMK A01 T00581037  RH  050%=      5-min Rain = 0
KFR1 211307Z 22012KT 06/M04 A2976 RMK A01 T00581037  RH  050%=      5-min Rain = 0
KFR1 211308Z 22012KT 06/M04 A2976 RMK A01 T00581037  RH  050%=      5-min Rain = 0
KFR1 211309Z 21011KT 06/M04 A2976 RMK A01 T00581037  RH  050%=      5-min Rain = 0
KFR1 211310Z 22011KT 06/M04 A2976 RMK A01 T00581037  RH  050%=      5-min Rain = 0
KFR1 211311Z 22011KT 06/M04 A2976 RMK A01 T00581037  RH  051%=      5-min Rain = 0
KFR1 211312Z 22010KT 06/M04 A2976 RMK A01 T00571037  RH  051%=      5-min Rain = 0
KFR1 211313Z 22010KT 06/M04 A2976 RMK A01 T00571037  RH  051%=      5-min Rain = 0
KFR1 211314Z 22011KT 06/M04 A2976 RMK A01 T00561037  RH  051%=      5-min Rain = 0
KFR1 211315Z 23010KT 06/M04 A2976 RMK A01 T00571037  RH  051%=      5-min Rain = 0
KFR1 211316Z 22010KT 06/M04 A2976 RMK A01 T00591037  RH  050%=      5-min Rain = 0
KFR1 211317Z 23010KT 06/M04 A2976 RMK A01 T00591037  RH  050%=      5-min Rain = 0
KFR1 211318Z 22010KT 06/M04 A2976 RMK A01 T00591037  RH  050%=      5-min Rain = 0
KFR1 211319Z 22011KT 06/M04 A2976 RMK A01 T00581037  RH  050%=      5-min Rain = 0
KFR1 211320Z 22011KT 06/M04 A2975 RMK A01 T00591037  RH  050%=      5-min Rain = 0
KFR1 211321Z 22011KT 06/M04 A2976 RMK A01 T00591037  RH  050%=      5-min Rain = 0
KFR1 211322Z 22011KT 06/M04 A2976 RMK A01 T00611037  RH  049%=      5-min Rain = 0
KFR1 211323Z 22011KT 06/M04 A2976 RMK A01 T00621037  RH  049%=      5-min Rain = 0
KFR1 211324Z 22012KT 06/M04 A2976 RMK A01 T00611038  RH  049%=      5-min Rain = 0
KFR1 211325Z 22012KT 06/M04 A2976 RMK A01 T00611038  RH  049%=      5-min Rain = 0
KFR1 211326Z 22012KT 06/M04 A2976 RMK A01 T00621038  RH  049%=      5-min Rain = 0
KFR1 211327Z 22012KT 06/M04 A2976 RMK A01 T00621038  RH  049%=      5-min Rain = 0
KFR1 211328Z 21013KT 06/M04 A2976 RMK A01 T00621038  RH  049%=      5-min Rain = 0
KFR1 211329Z 21012KT 06/M04 A2976 RMK A01 T00631038  RH  048%=      5-min Rain = 0
KFR1 211330Z 21013KT 06/M04 A2976 RMK A01 T00631038  RH  048%=      5-min Rain = 0
KFR1 211331Z 21013KT 06/M04 A2976 RMK A01 T00631038  RH  048%=      5-min Rain = 0
KFR1 211332Z 21012KT 06/M04 A2976 RMK A01 T00631038  RH  048%=      5-min Rain = 0
KFR1 211333Z 21012KT 06/M04 A2976 RMK A01 T00631038  RH  048%=      5-min Rain = 0
KFR1 211334Z 21010KT 06/M04 A2976 RMK A01 T00631038  RH  048%=      5-min Rain = 0
KFR1 211335Z 21011KT 06/M04 A2976 RMK A01 T00631038  RH  048%=      5-min Rain = 0
KFR1 211336Z 21012KT 06/M04 A2976 RMK A01 T00631038  RH  048%=      5-min Rain = 0
KFR1 211337Z 21013KT 06/M04 A2976 RMK A01 T00621039  RH  048%=      5-min Rain = 0
KFR1 211338Z 21013KT 06/M04 A2975 RMK A01 T00631039  RH  048%=      5-min Rain = 0
KFR1 211339Z 21013KT 06/M04 A2975 RMK A01 T00631039  RH  048%=      5-min Rain = 0
KFR1 211340Z 20012KT 06/M04 A2975 RMK A01 T00621039  RH  048%=      5-min Rain = 0
KFR1 211341Z 21013KT 06/M04 A2975 RMK A01 T00621039  RH  048%=      5-min Rain = 0
KFR1 211342Z 21014KT 06/M04 A2975 RMK A01 T00611039  RH  049%=      5-min Rain = 0
KFR1 211343Z 21012KT 06/M04 A2974 RMK A01 T00611039  RH  049%=      5-min Rain = 0
KFR1 211344Z 21016KT 06/M04 A2974 RMK A01 T00601040  RH  049%=      5-min Rain = 0
KFR1 211345Z 21015KT 06/M04 A2974 RMK A01 T00611039  RH  048%=      5-min Rain = 0
KFR1 211346Z 21016KT 06/M04 A2974 RMK A01 T00621039  RH  048%=      5-min Rain = 0
KFR1 211347Z 21014KT 06/M04 A2974 RMK A01 T00631040  RH  048%=      5-min Rain = 0
KFR1 211348Z 21014KT 06/M04 A2974 RMK A01 T00631039  RH  048%=      5-min Rain = 0
KFR1 211349Z 21014KT 06/M04 A2974 RMK A01 T00621039  RH  048%=      5-min Rain = 0
KFR1 211350Z 21015KT 06/M04 A2974 RMK A01 T00621040  RH  048%=      5-min Rain = 0
KFR1 211351Z 22016KT 06/M04 A2974 RMK A01 T00621039  RH  048%=      5-min Rain = 0
KFR1 211352Z 21017KT 06/M04 A2974 RMK A01 T00641039  RH  048%=      5-min Rain = 0
KFR1 211353Z 21014KT 06/M04 A2974 RMK A01 T00641039  RH  047%=      5-min Rain = 0
KFR1 211354Z 21015KT 07/M04 A2974 RMK A01 T00651039  RH  047%=      5-min Rain = 0
KFR1 211355Z 21014KT 07/M04 A2974 RMK A01 T00651039  RH  047%=      5-min Rain = 0
KFR1 211356Z 21015KT 07/M04 A2974 RMK A01 T00651039  RH  047%=      5-min Rain = 0
KFR1 211357Z 21018G23KT 07/M04 A2974 RMK A01 T00661039  RH  047%=      5-min Rain = 0
KFR1 211358Z 21018KT 07/M04 A2974 RMK A01 T00661040  RH  047%=      5-min Rain = 0
KFR1 211359Z 21019KT 07/M04 A2973 RMK A01 T00671040  RH  046%=      5-min Rain = 0
KFR1 211400Z 21018KT 07/M04 A2973 RMK A01 T00681040  RH  046%=      5-min Rain = 0
KFR1 211401Z 21018KT 07/M04 A2973 RMK A01 T00681040  RH  046%=      5-min Rain = 0
KFR1 211402Z 21018G24KT 07/M04 A2973 RMK A01 T00681040  RH  046%=      5-min Rain = 0
KFR1 211403Z 20018KT 07/M04 A2973 RMK A01 T00681040  RH  046%=      5-min Rain = 0
KFR1 211404Z 20020KT 07/M04 A2973 RMK A01 T00681041  RH  046%=      5-min Rain = 0
KFR1 211405Z 20017G22KT 07/M04 A2973 RMK A01 T00681041  RH  046%=      5-min Rain = 0
KFR1 211406Z 20020KT 07/M04 A2973 RMK A01 T00681041  RH  046%=      5-min Rain = 0
KFR1 211407Z 20017KT 07/M04 A2973 RMK A01 T00681040  RH  046%=      5-min Rain = 0
KFR1 211408Z 20020KT 07/M04 A2973 RMK A01 T00691041  RH  046%=      5-min Rain = 0
KFR1 211409Z 20017KT 07/M04 A2973 RMK A01 T00691041  RH  045%=      5-min Rain = 0
KFR1 211410Z 20018KT 07/M04 A2973 RMK A01 T00691041  RH  045%=      5-min Rain = 0
KFR1 211411Z 20018KT 07/M04 A2973 RMK A01 T00701041  RH  045%=      5-min Rain = 0
KFR1 211412Z 20018KT 07/M04 A2973 RMK A01 T00701041  RH  045%=      5-min Rain = 0
KFR1 211413Z 20018G25KT 07/M04 A2973 RMK A01 T00691041  RH  045%=      5-min Rain = 0
KFR1 211414Z 21016KT 07/M04 A2973 RMK A01 T00691040  RH  045%=      5-min Rain = 0
KFR1 211415Z 21016G21KT 07/M04 A2973 RMK A01 T00681041  RH  046%=      5-min Rain = 0
KFR1 211416Z 20016G21KT 07/M04 A2973 RMK A01 T00681041  RH  046%=      5-min Rain = 0
KFR1 211417Z 20018G23KT 07/M04 A2973 RMK A01 T00681041  RH  046%=      5-min Rain = 0
KFR1 211418Z 21018G23KT 07/M04 A2973 RMK A01 T00681040  RH  046%=      5-min Rain = 0
KFR1 211419Z 20020KT 07/M04 A2973 RMK A01 T00681041  RH  046%=      5-min Rain = 0
KFR1 211420Z 20017KT 07/M04 A2973 RMK A01 T00681041  RH  046%=      5-min Rain = 0
KFR1 211421Z 20020G25KT 07/M04 A2973 RMK A01 T00681041  RH  046%=      5-min Rain = 0
KFR1 211422Z 20020KT 07/M04 A2973 RMK A01 T00681041  RH  046%=      5-min Rain = 0
KFR1 211423Z 20022KT 07/M04 A2973 RMK A01 T00691040  RH  046%=      5-min Rain = 0
KFR1 211424Z 21020KT 07/M04 A2972 RMK A01 T00681041  RH  046%=      5-min Rain = 0
KFR1 211425Z 20019KT 07/M04 A2972 RMK A01 T00681041  RH  046%=      5-min Rain = 0
KFR1 211426Z 20019G24KT 07/M04 A2972 RMK A01 T00681040  RH  046%=      5-min Rain = 0
KFR1 211427Z 20019KT 07/M04 A2972 RMK A01 T00681041  RH  046%=      5-min Rain = 0
KFR1 211428Z 20019KT 07/M04 A2972 RMK A01 T00681041  RH  046%=      5-min Rain = 0
KFR1 211429Z 20019KT 07/M04 A2973 RMK A01 T00681041  RH  046%=      5-min Rain = 0
KFR1 211430Z 21018KT 07/M04 A2972 RMK A01 T00691041  RH  046%=      5-min Rain = 0
KFR1 211431Z 21018KT 07/M04 A2973 RMK A01 T00691041  RH  045%=      5-min Rain = 0
KFR1 211432Z 20016KT 07/M04 A2972 RMK A01 T00701040  RH  045%=      5-min Rain = 0
KFR1 211433Z 20019G24KT 07/M04 A2972 RMK A01 T00701041  RH  045%=      5-min Rain = 0
KFR1 211434Z 20018G24KT 07/M04 A2972 RMK A01 T00711040  RH  045%=      5-min Rain = 0
KFR1 211435Z 20020KT 07/M04 A2972 RMK A01 T00721040  RH  045%=      5-min Rain = 0
KFR1 211436Z 21019G25KT 07/M04 A2972 RMK A01 T00721040  RH  045%=      5-min Rain = 0
KFR1 211437Z 20022KT 07/M04 A2972 RMK A01 T00721040  RH  045%=      5-min Rain = 0
KFR1 211438Z 20020G25KT 07/M04 A2972 RMK A01 T00721041  RH  045%=      5-min Rain = 0
KFR1 211439Z 21021KT 07/M04 A2972 RMK A01 T00731041  RH  044%=      5-min Rain = 0
KFR1 211440Z 21020KT 07/M04 A2972 RMK A01 T00731040  RH  044%=      5-min Rain = 0
KFR1 211441Z 21022G27KT 07/M04 A2972 RMK A01 T00731041  RH  044%=      5-min Rain = 0
KFR1 211442Z 21020G25KT 07/M04 A2972 RMK A01 T00731040  RH  044%=      5-min Rain = 0
KFR1 211443Z 21021KT 07/M04 A2972 RMK A01 T00741041  RH  044%=      5-min Rain = 0
KFR1 211444Z 21023KT 07/M04 A2971 RMK A01 T00741040  RH  044%=      5-min Rain = 0
KFR1 211445Z 21024KT 08/M04 A2971 RMK A01 T00761041  RH  044%=      5-min Rain = 0
KFR1 211446Z 21023KT 08/M04 A2972 RMK A01 T00761041  RH  043%=      5-min Rain = 0
KFR1 211447Z 21023KT 08/M04 A2972 RMK A01 T00761041  RH  043%=      5-min Rain = 0
KFR1 211448Z 21024KT 08/M04 A2972 RMK A01 T00761041  RH  043%=      5-min Rain = 0
KFR1 211449Z 21023G28KT 08/M04 A2972 RMK A01 T00761041  RH  043%=      5-min Rain = 0
KFR1 211450Z 21020KT 08/M04 A2972 RMK A01 T00761042  RH  043%=      5-min Rain = 0
KFR1 211451Z 21021KT 08/M04 A2972 RMK A01 T00771042  RH  043%=      5-min Rain = 0
KFR1 211452Z 21020KT 08/M04 A2972 RMK A01 T00761042  RH  043%=      5-min Rain = 0
KFR1 211453Z 21022G27KT 08/M04 A2972 RMK A01 T00771042  RH  043%=      5-min Rain = 0
KFR1 211454Z 21022KT 08/M04 A2972 RMK A01 T00761042  RH  043%=      5-min Rain = 0
KFR1 211455Z 21020KT 08/M04 A2972 RMK A01 T00761042  RH  043%=      5-min Rain = 0
KFR1 211456Z 21021KT 08/M04 A2972 RMK A01 T00761043  RH  043%=      5-min Rain = 0
KFR1 211457Z 21021KT 08/M04 A2972 RMK A01 T00771043  RH  043%=      5-min Rain = 0
KFR1 211458Z 21021KT 08/M04 A2972 RMK A01 T00771043  RH  042%=      5-min Rain = 0
KFR1 211459Z 21021G28KT 08/M04 A2972 RMK A01 T00781042  RH  042%=      5-min Rain = 0
KFR1 211500Z 21022KT 08/M04 A2972 RMK A01 T00781043  RH  042%=      5-min Rain = 0
KFR1 211501Z 21022KT 08/M04 A2971 RMK A01 T00781043  RH  042%=      5-min Rain = 0
KFR1 211502Z 21020G27KT 08/M04 A2971 RMK A01 T00791043  RH  042%=      5-min Rain = 0
KFR1 211503Z 21021KT 08/M04 A2971 RMK A01 T00791043  RH  042%=      5-min Rain = 0
KFR1 211504Z 21022KT 08/M04 A2971 RMK A01 T00811042  RH  041%=      5-min Rain = 0
KFR1 211505Z 21021KT 08/M04 A2972 RMK A01 T00831043  RH  041%=      5-min Rain = 0
KFR1 211506Z 21021KT 09/M04 A2972 RMK A01 T00851043  RH  040%=      5-min Rain = 0
KFR1 211507Z 21019KT 09/M04 A2972 RMK A01 T00871042  RH  040%=      5-min Rain = 0
KFR1 211508Z 21020KT 09/M04 A2972 RMK A01 T00871043  RH  040%=      5-min Rain = 0
KFR1 211509Z 21022KT 09/M04 A2972 RMK A01 T00871043  RH  040%=      5-min Rain = 0
KFR1 211510Z 21019G24KT 09/M04 A2972 RMK A01 T00891043  RH  039%=      5-min Rain = 0
KFR1 211511Z 21017G22KT 09/M04 A2972 RMK A01 T00901042  RH  039%=      5-min Rain = 0
KFR1 211512Z 21021KT 09/M04 A2972 RMK A01 T00901042  RH  039%=      5-min Rain = 0
KFR1 211513Z 21021KT 09/M04 A2972 RMK A01 T00911042  RH  039%=      5-min Rain = 0
KFR1 211514Z 21019KT 09/M04 A2972 RMK A01 T00921043  RH  038%=      5-min Rain = 0
KFR1 211515Z 21019G24KT 09/M04 A2972 RMK A01 T00921042  RH  038%=      5-min Rain = 0
KFR1 211516Z 21019KT 09/M04 A2972 RMK A01 T00931042  RH  038%=      5-min Rain = 0
KFR1 211517Z 21018G23KT 09/M04 A2971 RMK A01 T00931042  RH  038%=      5-min Rain = 0
KFR1 211518Z 21020KT 09/M04 A2971 RMK A01 T00941042  RH  038%=      5-min Rain = 0
KFR1 211519Z 21022KT 10/M04 A2971 RMK A01 T00951043  RH  038%=      5-min Rain = 0
KFR1 211520Z 21020KT 10/M04 A2971 RMK A01 T00961043  RH  037%=      5-min Rain = 0
KFR1 211521Z 21020G28KT 10/M04 A2971 RMK A01 T00961042  RH  037%=      5-min Rain = 0
KFR1 211522Z 21022KT 10/M04 A2971 RMK A01 T00961043  RH  037%=      5-min Rain = 0
KFR1 211523Z 21020KT 10/M04 A2971 RMK A01 T00961043  RH  037%=      5-min Rain = 0
KFR1 211524Z 21020KT 10/M04 A2971 RMK A01 T00971042  RH  037%=      5-min Rain = 0
KFR1 211525Z 22019G24KT 10/M04 A2971 RMK A01 T00981042  RH  037%=      5-min Rain = 0
KFR1 211526Z 21021KT 10/M04 A2971 RMK A01 T00981042  RH  037%=      5-min Rain = 0
KFR1 211527Z 21020KT 10/M04 A2971 RMK A01 T00981042  RH  037%=      5-min Rain = 0
KFR1 211528Z 21022KT 10/M04 A2971 RMK A01 T00971042  RH  037%=      5-min Rain = 0
KFR1 211529Z 21023KT 10/M04 A2971 RMK A01 T00971042  RH  037%=      5-min Rain = 0
KFR1 211530Z 21019KT 10/M04 A2971 RMK A01 T00971043  RH  037%=      5-min Rain = 0
KFR1 211531Z 22023KT 10/M04 A2971 RMK A01 T00971042  RH  037%=      5-min Rain = 0
KFR1 211532Z 21023KT 10/M04 A297 RMK A01 T00971043  RH  037%=      5-min Rain = 0
KFR1 211533Z 22023KT 10/M04 A2971 RMK A01 T00981043  RH  037%=      5-min Rain = 0
KFR1 211534Z 21021KT 10/M04 A2971 RMK A01 T00981043  RH  037%=      5-min Rain = 0
KFR1 211535Z 22019G25KT 10/M04 A2971 RMK A01 T00991042  RH  037%=      5-min Rain = 0
KFR1 211536Z 22020KT 10/M04 A2971 RMK A01 T00991043  RH  037%=      5-min Rain = 0
KFR1 211537Z 22020KT 10/M04 A2971 RMK A01 T00991042  RH  037%=      5-min Rain = 0
KFR1 211538Z 21024KT 10/M04 A297 RMK A01 T01001043  RH  036%=      5-min Rain = 0
KFR1 211539Z 22022KT 10/M04 A2971 RMK A01 T01001043  RH  036%=      5-min Rain = 0
KFR1 211540Z 21024KT 10/M04 A297 RMK A01 T01001043  RH  036%=      5-min Rain = 0
KFR1 211541Z 22022G28KT 10/M04 A297 RMK A01 T01001042  RH  036%=      5-min Rain = 0
KFR1 211542Z 22022KT 10/M04 A297 RMK A01 T01011043  RH  036%=      5-min Rain = 0
KFR1 211543Z 22022KT 10/M04 A297 RMK A01 T01011043  RH  036%=      5-min Rain = 0
KFR1 211544Z 21023KT 10/M04 A297 RMK A01 T01021042  RH  036%=      5-min Rain = 0
KFR1 211545Z 22021KT 10/M04 A297 RMK A01 T01031043  RH  036%=      5-min Rain = 0
KFR1 211546Z 21020KT 10/M04 A297 RMK A01 T01041042  RH  035%=      5-min Rain = 0
KFR1 211547Z 22024KT 11/M04 A297 RMK A01 T01051043  RH  035%=      5-min Rain = 0
KFR1 211548Z 22023G28KT 11/M04 A297 RMK A01 T01051044  RH  035%=      5-min Rain = 0
KFR1 211549Z 21025KT 11/M04 A2969 RMK A01 T01061044  RH  035%=      5-min Rain = 0
KFR1 211550Z 21025KT 11/M04 A2969 RMK A01 T01071044  RH  034%=      5-min Rain = 0
KFR1 211551Z 21023KT 11/M04 A297 RMK A01 T01081044  RH  034%=      5-min Rain = 0
KFR1 211552Z 21023KT 11/M04 A297 RMK A01 T01081044  RH  034%=      5-min Rain = 0
KFR1 211553Z 21022G27KT 11/M04 A2969 RMK A01 T01091044  RH  034%=      5-min Rain = 0
KFR1 211554Z 21024KT 11/M04 A2969 RMK A01 T01101044  RH  034%=      5-min Rain = 0
KFR1 211555Z 21020G25KT 11/M04 A297 RMK A01 T01101044  RH  034%=      5-min Rain = 0
KFR1 211556Z 21022KT 11/M04 A297 RMK A01 T01111043  RH  034%=      5-min Rain = 0
KFR1 211557Z 21023KT 11/M04 A2969 RMK A01 T01121044  RH  033%=      5-min Rain = 0
KFR1 211558Z 21021KT 11/M04 A2969 RMK A01 T01121044  RH  033%=      5-min Rain = 0
KFR1 211559Z 21021G28KT 11/M04 A2969 RMK A01 T01131044  RH  033%=      5-min Rain = 0
KFR1 211600Z 21022KT 12/M04 A2969 RMK A01 T01151043  RH  033%=      5-min Rain = 0
KFR1 211601Z 21020G26KT 12/M04 A2969 RMK A01 T01161044  RH  032%=      5-min Rain = 0
KFR1 211602Z 21021KT 12/M04 A2969 RMK A01 T01171044  RH  032%=      5-min Rain = 0
KFR1 211603Z 21018KT 12/M04 A2969 RMK A01 T01181044  RH  032%=      5-min Rain = 0
KFR1 211604Z 21023KT 12/M05 A2969 RMK A01 T01191045  RH  031%=      5-min Rain = 0
KFR1 211605Z 21021KT 12/M05 A2969 RMK A01 T01211045  RH  031%=      5-min Rain = 0
KFR1 211606Z 22019G24KT 12/M05 A2969 RMK A01 T01221045  RH  031%=      5-min Rain = 0
KFR1 211607Z 21020KT 12/M04 A2969 RMK A01 T01231044  RH  031%=      5-min Rain = 0
KFR1 211608Z 22019KT 12/M05 A297 RMK A01 T01241045  RH  031%=      5-min Rain = 0
KFR1 211609Z 22019KT 13/M05 A297 RMK A01 T01251045  RH  030%=      5-min Rain = 0
KFR1 211610Z 22019KT 13/M04 A297 RMK A01 T01261044  RH  030%=      5-min Rain = 0
KFR1 211611Z 22019G24KT 13/M05 A297 RMK A01 T01261046  RH  030%=      5-min Rain = 0
KFR1 211612Z 22022KT 13/M05 A297 RMK A01 T01261046  RH  030%=      5-min Rain = 0
KFR1 211613Z 22021KT 13/M05 A297 RMK A01 T01271047  RH  029%=      5-min Rain = 0
KFR1 211614Z 22021G26KT 13/M05 A297 RMK A01 T01271048  RH  029%=      5-min Rain = 0
KFR1 211615Z 22020G26KT 13/M05 A297 RMK A01 T01271048  RH  029%=      5-min Rain = 0
KFR1 211616Z 22020G25KT 13/M05 A297 RMK A01 T01271048  RH  029%=      5-min Rain = 0
KFR1 211617Z 22022KT 13/M05 A297 RMK A01 T01281048  RH  029%=      5-min Rain = 0
KFR1 211618Z 22019KT 13/M05 A297 RMK A01 T01281047  RH  029%=      5-min Rain = 0
KFR1 211619Z 23017G22KT 13/M05 A2971 RMK A01 T01281047  RH  029%=      5-min Rain = 0
KFR1 211620Z 23018KT 13/M05 A297 RMK A01 T01291047  RH  029%=      5-min Rain = 0
KFR1 211621Z 23020KT 13/M05 A297 RMK A01 T01291047  RH  029%=      5-min Rain = 0
KFR1 211622Z 22018KT 13/M05 A297 RMK A01 T01301046  RH  029%=      5-min Rain = 0
KFR1 211623Z 23019G24KT 13/M05 A297 RMK A01 T01301046  RH  029%=      5-min Rain = 0
KFR1 211624Z 23020G27KT 13/M05 A297 RMK A01 T01311046  RH  029%=      5-min Rain = 0
KFR1 211625Z 23023KT 13/M05 A297 RMK A01 T01311048  RH  028%=      5-min Rain = 0
KFR1 211626Z 23022G28KT 13/M05 A297 RMK A01 T01321048  RH  028%=      5-min Rain = 0
KFR1 211627Z 23024G30KT 13/M05 A297 RMK A01 T01331049  RH  028%=      5-min Rain = 0
KFR1 211628Z 22024KT 13/M05 A2969 RMK A01 T01331049  RH  028%=      5-min Rain = 0
KFR1 211629Z 23021G31KT 13/M05 A297 RMK A01 T01341049  RH  028%=      5-min Rain = 0
KFR1 211630Z 22023G30KT 14/M05 A2969 RMK A01 T01351048  RH  028%=      5-min Rain = 0
KFR1 211631Z 23027KT 14/M05 A2969 RMK A01 T01371049  RH  027%=      5-min Rain = 0
KFR1 211632Z 22027G33KT 14/M05 A2969 RMK A01 T01391049  RH  027%=      5-min Rain = 0
KFR1 211633Z 23023G30KT 14/M05 A2969 RMK A01 T01391049  RH  027%=      5-min Rain = 0
KFR1 211634Z 23023G29KT 14/M05 A2969 RMK A01 T01411049  RH  026%=      5-min Rain = 0
KFR1 211635Z 23022KT 14/M05 A2969 RMK A01 T01431049  RH  026%=      5-min Rain = 0
KFR1 211636Z 22022KT 14/M05 A2969 RMK A01 T01441048  RH  026%=      5-min Rain = 0
KFR1 211637Z 23023KT 15/M05 A297 RMK A01 T01451048  RH  026%=      5-min Rain = 0
KFR1 211638Z 23023G31KT 15/M05 A297 RMK A01 T01451049  RH  026%=      5-min Rain = 0
KFR1 211639Z 22027KT 15/M05 A2969 RMK A01 T01461049  RH  026%=      5-min Rain = 0
KFR1 211640Z 22025G31KT 15/M05 A2969 RMK A01 T01461050  RH  025%=      5-min Rain = 0
KFR1 211641Z 23028KT 15/M05 A2969 RMK A01 T01471050  RH  025%=      5-min Rain = 0
KFR1 211642Z 23025KT 15/M05 A297 RMK A01 T01471051  RH  025%=      5-min Rain = 0
KFR1 211643Z 23030KT 15/M05 A297 RMK A01 T01481050  RH  025%=      5-min Rain = 0
KFR1 211644Z 22023G29KT 15/M05 A2969 RMK A01 T01481051  RH  025%=      5-min Rain = 0
KFR1 211645Z 22027KT 15/M05 A297 RMK A01 T01481050  RH  025%=      5-min Rain = 0
KFR1 211646Z 23028G37KT 15/M05 A297 RMK A01 T01481050  RH  025%=      5-min Rain = 0
KFR1 211647Z 23024KT 15/M05 A297 RMK A01 T01491050  RH  025%=      5-min Rain = 0
KFR1 211648Z 23025KT 15/M05 A297 RMK A01 T01501049  RH  025%=      5-min Rain = 0
KFR1 211649Z 23023G28KT 15/M05 A297 RMK A01 T01491050  RH  025%=      5-min Rain = 0
KFR1 211650Z 23027KT 15/M05 A297 RMK A01 T01491049  RH  025%=      5-min Rain = 0
KFR1 211651Z 22027G32KT 15/M05 A297 RMK A01 T01471050  RH  025%=      5-min Rain = 0
KFR1 211652Z 22026KT 15/M05 A2969 RMK A01 T01461050  RH  025%=      5-min Rain = 0
KFR1 211653Z 23026G32KT 15/M05 A297 RMK A01 T01471049  RH  025%=      5-min Rain = 0
KFR1 211654Z 22027G34KT 15/M05 A297 RMK A01 T01481049  RH  025%=      5-min Rain = 0
KFR1 211655Z 23027G35KT 15/M05 A297 RMK A01 T01481049  RH  025%=      5-min Rain = 0
KFR1 211656Z 23025G31KT 15/M05 A297 RMK A01 T01481049  RH  025%=      5-min Rain = 0
KFR1 211657Z 22023G28KT 15/M05 A297 RMK A01 T01481048  RH  026%=      5-min Rain = 0
KFR1 211658Z 23027G33KT 15/M05 A2969 RMK A01 T01481047  RH  026%=      5-min Rain = 0
KFR1 211659Z 23028KT 15/M05 A2969 RMK A01 T01491047  RH  025%=      5-min Rain = 0
KFR1 211700Z 23023G28KT 15/M05 A297 RMK A01 T01491047  RH  025%=      5-min Rain = 0
KFR1 211701Z 23025G30KT 15/M05 A297 RMK A01 T01501046  RH  025%=      5-min Rain = 0
KFR1 211702Z 22026KT 15/M05 A2969 RMK A01 T01501047  RH  025%=      5-min Rain = 0
KFR1 211703Z 23024KT 15/M05 A2969 RMK A01 T01501047  RH  025%=      5-min Rain = 0
KFR1 211704Z 23023KT 15/M05 A2969 RMK A01 T01491046  RH  026%=      5-min Rain = 0
KFR1 211705Z 23024G31KT 15/M04 A2969 RMK A01 T01501044  RH  026%=      5-min Rain = 0
KFR1 211706Z 23022KT 15/M05 A2969 RMK A01 T01511045  RH  025%=      5-min Rain = 0
KFR1 211707Z 23024G30KT 15/M05 A2969 RMK A01 T01521045  RH  026%=      5-min Rain = 0
KFR1 211708Z 23026KT 15/M05 A2969 RMK A01 T01511045  RH  025%=      5-min Rain = 0
KFR1 211709Z 23030KT 15/M05 A2969 RMK A01 T01521045  RH  025%=      5-min Rain = 0
KFR1 211710Z 23020G26KT 15/M05 A2969 RMK A01 T01521045  RH  025%=      5-min Rain = 0
KFR1 211711Z 23020KT 15/M04 A297 RMK A01 T01531044  RH  025%=      5-min Rain = 0
KFR1 211712Z 24019KT 16/M04 A2969 RMK A01 T01551043  RH  025%=      5-min Rain = 0
KFR1 211713Z 23022KT 16/M04 A2969 RMK A01 T01571043  RH  025%=      5-min Rain = 0
KFR1 211714Z 23023G28KT 16/M04 A2969 RMK A01 T01581043  RH  025%=      5-min Rain = 0
KFR1 211715Z 23024KT 16/M04 A2969 RMK A01 T01581044  RH  025%=      5-min Rain = 0
KFR1 211716Z 23024KT 16/M04 A2969 RMK A01 T01571044  RH  025%=      5-min Rain = 0
KFR1 211717Z 23021KT 16/M04 A2969 RMK A01 T01581044  RH  025%=      5-min Rain = 0
KFR1 211718Z 23021KT 16/M04 A2969 RMK A01 T01601042  RH  025%=      5-min Rain = 0
KFR1 211719Z 23020G25KT 16/M04 A2969 RMK A01 T01631041  RH  024%=      5-min Rain = 0
KFR1 211720Z 23021KT 17/M04 A2969 RMK A01 T01651041  RH  024%=      5-min Rain = 0
KFR1 211721Z 23025KT 17/M04 A2969 RMK A01 T01661042  RH  024%=      5-min Rain = 0
KFR1 211722Z 23022KT 17/M04 A2969 RMK A01 T01661043  RH  024%=      5-min Rain = 0
KFR1 211723Z 24021KT 17/M04 A2969 RMK A01 T01651043  RH  024%=      5-min Rain = 0
KFR1 211724Z 23021KT 17/M04 A2969 RMK A01 T01661042  RH  024%=      5-min Rain = 0
KFR1 211725Z 23020KT 17/M04 A2969 RMK A01 T01671042  RH  024%=      5-min Rain = 0
KFR1 211726Z 23020G26KT 17/M04 A2969 RMK A01 T01681043  RH  023%=      5-min Rain = 0
KFR1 211727Z 23025KT 17/M04 A2969 RMK A01 T01701043  RH  023%=      5-min Rain = 0
KFR1 211728Z 23020G25KT 17/M04 A2969 RMK A01 T01691044  RH  023%=      5-min Rain = 0
KFR1 211729Z 22022KT 17/M04 A2969 RMK A01 T01691044  RH  023%=      5-min Rain = 0
KFR1 211730Z 22022G27KT 17/M04 A2969 RMK A01 T01691044  RH  023%=      5-min Rain = 0
KFR1 211731Z 23022KT 17/M04 A2969 RMK A01 T01691044  RH  023%=      5-min Rain = 0
KFR1 211732Z 22020G25KT 17/M04 A2969 RMK A01 T01701043  RH  023%=      5-min Rain = 0
KFR1 211733Z 23019KT 17/M04 A2969 RMK A01 T01711043  RH  023%=      5-min Rain = 0
KFR1 211734Z 23019G24KT 17/M04 A2969 RMK A01 T01711043  RH  023%=      5-min Rain = 0
KFR1 211735Z 22020KT 17/M04 A2969 RMK A01 T01711043  RH  023%=      5-min Rain = 0
KFR1 211736Z 23021KT 17/M04 A2969 RMK A01 T01721043  RH  023%=      5-min Rain = 0
KFR1 211737Z 22020G25KT 17/M05 A2968 RMK A01 T01721045  RH  022%=      5-min Rain = 0
KFR1 211738Z 22019KT 17/M04 A2968 RMK A01 T01721044  RH  023%=      5-min Rain = 0
KFR1 211739Z 24020KT 17/M04 A2969 RMK A01 T01741044  RH  022%=      5-min Rain = 0
KFR1 211740Z 23024KT 18/M04 A2968 RMK A01 T01761044  RH  022%=      5-min Rain = 0
KFR1 211741Z 23019KT 18/M04 A2968 RMK A01 T01751044  RH  022%=      5-min Rain = 0
KFR1 211742Z 23024KT 18/M04 A2968 RMK A01 T01751044  RH  022%=      5-min Rain = 0
KFR1 211743Z 24023KT 18/M05 A2968 RMK A01 T01761045  RH  022%=      5-min Rain = 0
KFR1 211744Z 24020G28KT 18/M05 A2968 RMK A01 T01761045  RH  022%=      5-min Rain = 0
KFR1 211745Z 23019KT 18/M04 A2968 RMK A01 T01781043  RH  022%=      5-min Rain = 0
KFR1 211746Z 23019G24KT 18/M04 A2968 RMK A01 T01801044  RH  021%=      5-min Rain = 0
KFR1 211747Z 23018G25KT 18/M04 A2968 RMK A01 T01801044  RH  021%=      5-min Rain = 0
KFR1 211748Z 22021G26KT 18/M04 A2968 RMK A01 T01801044  RH  021%=      5-min Rain = 0
KFR1 211749Z 23022KT 18/M05 A2968 RMK A01 T01801046  RH  021%=      5-min Rain = 0
KFR1 211750Z 23024KT 18/M05 A2968 RMK A01 T01781047  RH  021%=      5-min Rain = 0
KFR1 211751Z 23023G29KT 18/M05 A2968 RMK A01 T01771048  RH  021%=      5-min Rain = 0
KFR1 211752Z 24022KT 18/M05 A2969 RMK A01 T01771047  RH  021%=      5-min Rain = 0
KFR1 211753Z 23020G25KT 18/M05 A2969 RMK A01 T01781047  RH  021%=      5-min Rain = 0
KFR1 211754Z 23022KT 18/M05 A2968 RMK A01 T01781047  RH  021%=      5-min Rain = 0
KFR1 211755Z 23020KT 18/M05 A2968 RMK A01 T01771049  RH  021%=      5-min Rain = 0
KFR1 211756Z 23026KT 18/M05 A2968 RMK A01 T01781049  RH  021%=      5-min Rain = 0
KFR1 211757Z 23026KT 18/M05 A2968 RMK A01 T01791049  RH  021%=      5-min Rain = 0
KFR1 211758Z 23021G27KT 18/M05 A2968 RMK A01 T01801050  RH  021%=      5-min Rain = 0
KFR1 211759Z 23021KT 18/M05 A2968 RMK A01 T01821047  RH  021%=      5-min Rain = 0
KFR1 211800Z 23024KT 18/M05 A2968 RMK A01 T01841047  RH  020%=      5-min Rain = 0
KFR1 211801Z 23021G26KT 18/M05 A2968 RMK A01 T01841047  RH  020%=      5-min Rain = 0
KFR1 211802Z 24018KT 19/M05 A2968 RMK A01 T01861046  RH  020%=      5-min Rain = 0
KFR1 211803Z 24020KT 19/M05 A2968 RMK A01 T01891045  RH  020%=      5-min Rain = 0
KFR1 211804Z 24021KT 19/M05 A2968 RMK A01 T01881048  RH  020%=      5-min Rain = 0
KFR1 211805Z 24022G28KT 19/M05 A2968 RMK A01 T01871048  RH  020%=      5-min Rain = 0
KFR1 211806Z 24023KT 19/M05 A2967 RMK A01 T01871049  RH  020%=      5-min Rain = 0
KFR1 211807Z 24022KT 19/M05 A2967 RMK A01 T01871050  RH  020%=      5-min Rain = 0
KFR1 211808Z 23015KT 19/M05 A2967 RMK A01 T01861050  RH  020%=      5-min Rain = 0
KFR1 211809Z 22018KT 19/M05 A2966 RMK A01 T01861047  RH  020%=      5-min Rain = 0
KFR1 211810Z 22016KT 19/M05 A2966 RMK A01 T01851046  RH  020%=      5-min Rain = 0
KFR1 211811Z 24019G24KT 19/M04 A2966 RMK A01 T01871044  RH  020%=      5-min Rain = 0
KFR1 211812Z 23019KT 19/M05 A2967 RMK A01 T01891045  RH  020%=      5-min Rain = 0
KFR1 211813Z 23021KT 19/M05 A2967 RMK A01 T01901045  RH  020%=      5-min Rain = 0
KFR1 211814Z 22022G27KT 19/M05 A2966 RMK A01 T01891047  RH  020%=      5-min Rain = 0
KFR1 211815Z 23022G30KT 19/M05 A2966 RMK A01 T01871047  RH  020%=      5-min Rain = 0
KFR1 211816Z 23024G29KT 19/M05 A2966 RMK A01 T01861047  RH  020%=      5-min Rain = 0
KFR1 211817Z 24023G28KT 19/M05 A2966 RMK A01 T01871048  RH  020%=      5-min Rain = 0
KFR1 211818Z 23024G30KT 19/M05 A2966 RMK A01 T01871050  RH  020%=      5-min Rain = 0
KFR1 211819Z 23027KT 19/M05 A2965 RMK A01 T01891049  RH  019%=      5-min Rain = 0
KFR1 211820Z 23027KT 19/M05 A2965 RMK A01 T01891050  RH  019%=      5-min Rain = 0
KFR1 211821Z 23023KT 19/M05 A2965 RMK A01 T01891049  RH  020%=      5-min Rain = 0
KFR1 211822Z 24021G27KT 19/M05 A2966 RMK A01 T01901048  RH  019%=      5-min Rain = 0
KFR1 211823Z 24023KT 19/M05 A2966 RMK A01 T01921051  RH  019%=      5-min Rain = 0
KFR1 211824Z 24019KT 19/M05 A2965 RMK A01 T01921050  RH  019%=      5-min Rain = 0
KFR1 211825Z 23023KT 19/M05 A2965 RMK A01 T01921048  RH  019%=      5-min Rain = 0
KFR1 211826Z 23024KT 19/M05 A2965 RMK A01 T01911049  RH  019%=      5-min Rain = 0
KFR1 211827Z 23027KT 19/M05 A2965 RMK A01 T01891050  RH  019%=      5-min Rain = 0
KFR1 211828Z 23029KT 19/M05 A2964 RMK A01 T01881052  RH  019%=      5-min Rain = 0
KFR1 211829Z 23028KT 19/M05 A2964 RMK A01 T01881052  RH  019%=      5-min Rain = 0
KFR1 211830Z 23025KT 19/M05 A2965 RMK A01 T01891051  RH  019%=      5-min Rain = 0
KFR1 211831Z 23024KT 19/M05 A2964 RMK A01 T01921049  RH  019%=      5-min Rain = 0
KFR1 211832Z 23020G26KT 19/M05 A2965 RMK A01 T01941048  RH  019%=      5-min Rain = 0
KFR1 211833Z 23025KT 20/M05 A2964 RMK A01 T01961049  RH  019%=      5-min Rain = 0
KFR1 211834Z 23023G29KT 20/M05 A2964 RMK A01 T01971050  RH  018%=      5-min Rain = 0
KFR1 211835Z 23027G32KT 20/M05 A2964 RMK A01 T01971050  RH  018%=      5-min Rain = 0
KFR1 211836Z 24028G35KT 20/M05 A2964 RMK A01 T01971052  RH  018%=      5-min Rain = 0
KFR1 211837Z 23026G31KT 20/M05 A2964 RMK A01 T01971053  RH  018%=      5-min Rain = 0
KFR1 211838Z 23027KT 20/M05 A2964 RMK A01 T01961053  RH  018%=      5-min Rain = 0
KFR1 211839Z 24027G32KT 20/M05 A2964 RMK A01 T01961054  RH  018%=      5-min Rain = 0
KFR1 211840Z 24027G33KT 20/M06 A2964 RMK A01 T01961055  RH  018%=      5-min Rain = 0
KFR1 211841Z 24024KT 20/M05 A2964 RMK A01 T01961054  RH  018%=      5-min Rain = 0
KFR1 211842Z 23025KT 20/M05 A2964 RMK A01 T01971053  RH  018%=      5-min Rain = 0
KFR1 211843Z 23025G30KT 20/M05 A2964 RMK A01 T01981051  RH  018%=      5-min Rain = 0
KFR1 211844Z 23019G25KT 20/M05 A2964 RMK A01 T01981050  RH  018%=      5-min Rain = 0
KFR1 211845Z 24020KT 20/M05 A2965 RMK A01 T02011048  RH  018%=      5-min Rain = 0
KFR1 211846Z 23024G31KT 20/M05 A2965 RMK A01 T02031050  RH  018%=      5-min Rain = 0
KFR1 211847Z 24023G28KT 20/M05 A2964 RMK A01 T02031052  RH  017%=      5-min Rain = 0
KFR1 211848Z 24024G32KT 20/M05 A2964 RMK A01 T02031052  RH  017%=      5-min Rain = 0
KFR1 211849Z 24026KT 20/M05 A2964 RMK A01 T02031053  RH  017%=      5-min Rain = 0
KFR1 211850Z 24023G28KT 20/M05 A2964 RMK A01 T02031054  RH  017%=      5-min Rain = 0
KFR1 211851Z 23023G31KT 20/M05 A2964 RMK A01 T02031052  RH  017%=      5-min Rain = 0
KFR1 211852Z 23025KT 20/M05 A2964 RMK A01 T02041053  RH  017%=      5-min Rain = 0
KFR1 211853Z 23027KT 20/M05 A2964 RMK A01 T02041052  RH  017%=      5-min Rain = 0
KFR1 211854Z 23025KT 20/M05 A2964 RMK A01 T02041052  RH  017%=      5-min Rain = 0
KFR1 211855Z 23023G29KT 20/M05 A2964 RMK A01 T02041052  RH  017%=      5-min Rain = 0
KFR1 211856Z 23023KT 20/M05 A2964 RMK A01 T02041052  RH  017%=      5-min Rain = 0
KFR1 211857Z 23021G28KT 21/M05 A2964 RMK A01 T02051052  RH  017%=      5-min Rain = 0
KFR1 211858Z 24022KT 21/M05 A2964 RMK A01 T02071052  RH  017%=      5-min Rain = 0
KFR1 211859Z 24022G27KT 21/M05 A2964 RMK A01 T02081052  RH  017%=      5-min Rain = 0
KFR1 211900Z 24026G32KT 21/M05 A2964 RMK A01 T02091053  RH  017%=      5-min Rain = 0
KFR1 211901Z 23025KT 21/M06 A2963 RMK A01 T02081055  RH  017%=      5-min Rain = 0
KFR1 211902Z 23026G31KT 21/M06 A2963 RMK A01 T02061056  RH  017%=      5-min Rain = 0
KFR1 211903Z 24027G32KT 21/M06 A2963 RMK A01 T02061056  RH  017%=      5-min Rain = 0
KFR1 211904Z 24025KT 21/M06 A2963 RMK A01 T02061056  RH  017%=      5-min Rain = 0
KFR1 211905Z 23026KT 21/M06 A2962 RMK A01 T02051056  RH  017%=      5-min Rain = 0
KFR1 211906Z 23023G29KT 20/M06 A2963 RMK A01 T02041057  RH  017%=      5-min Rain = 0
KFR1 211907Z 24024G29KT 20/M06 A2963 RMK A01 T02041056  RH  017%=      5-min Rain = 0
KFR1 211908Z 24024G31KT 20/M06 A2962 RMK A01 T02041056  RH  017%=      5-min Rain = 0
KFR1 211909Z 24026KT 20/M06 A2962 RMK A01 T02031057  RH  017%=      5-min Rain = 0
KFR1 211910Z 24027G33KT 20/M06 A2962 RMK A01 T02021058  RH  017%=      5-min Rain = 0
KFR1 211911Z 24029G35KT 20/M06 A2962 RMK A01 T02031058  RH  017%=      5-min Rain = 0
KFR1 211912Z 24028G34KT 20/M06 A2962 RMK A01 T02041057  RH  017%=      5-min Rain = 0
KFR1 211913Z 24027KT 20/M06 A2962 RMK A01 T02041057  RH  017%=      5-min Rain = 0
KFR1 211914Z 23026G31KT 21/M06 A2962 RMK A01 T02051057  RH  017%=      5-min Rain = 0
KFR1 211915Z 23025G32KT 21/M06 A2962 RMK A01 T02061056  RH  017%=      5-min Rain = 0
KFR1 211916Z 24022G28KT 21/M06 A2962 RMK A01 T02071056  RH  017%=      5-min Rain = 0
KFR1 211917Z 24022G29KT 21/M06 A2962 RMK A01 T02081055  RH  017%=      5-min Rain = 0
KFR1 211918Z 24021G28KT 21/M05 A2962 RMK A01 T02091054  RH  017%=      5-min Rain = 0
KFR1 211919Z 23021KT 21/M05 A2961 RMK A01 T02111054  RH  016%=      5-min Rain = 0
KFR1 211920Z 25024G29KT 21/M05 A2961 RMK A01 T02141053  RH  016%=      5-min Rain = 0
KFR1 211921Z 24026G32KT 22/M06 A2961 RMK A01 T02161057  RH  016%=      5-min Rain = 0
KFR1 211922Z 24022G27KT 22/M06 A2961 RMK A01 T02161057  RH  016%=      5-min Rain = 0
KFR1 211923Z 24021G27KT 22/M06 A2961 RMK A01 T02161055  RH  016%=      5-min Rain = 0
KFR1 211924Z 24025G30KT 22/M05 A2961 RMK A01 T02171054  RH  016%=      5-min Rain = 0
KFR1 211925Z 24027G33KT 22/M06 A2961 RMK A01 T02181057  RH  015%=      5-min Rain = 0
KFR1 211926Z 25023KT 22/M06 A2961 RMK A01 T02171057  RH  015%=      5-min Rain = 0
KFR1 211927Z 24025G30KT 22/M06 A2961 RMK A01 T02161055  RH  016%=      5-min Rain = 0
KFR1 211928Z 24022G29KT 22/M05 A2961 RMK A01 T02161054  RH  016%=      5-min Rain = 0
KFR1 211929Z 24025G32KT 22/M06 A296 RMK A01 T02151055  RH  016%=      5-min Rain = 0
KFR1 211930Z 23030G35KT 21/M06 A296 RMK A01 T02131058  RH  016%=      5-min Rain = 0
KFR1 211931Z 24029G34KT 21/M06 A296 RMK A01 T02111060  RH  016%=      5-min Rain = 0
KFR1 211932Z 23028G33KT 21/M06 A296 RMK A01 T02101061  RH  016%=      5-min Rain = 0
KFR1 211933Z 23028G35KT 21/M06 A296 RMK A01 T02091060  RH  016%=      5-min Rain = 0
KFR1 211934Z 23031KT 21/M06 A296 RMK A01 T02101059  RH  016%=      5-min Rain = 0
KFR1 211935Z 24028KT 21/M06 A296 RMK A01 T02111059  RH  016%=      5-min Rain = 0
KFR1 211936Z 24025G30KT 21/M06 A296 RMK A01 T02111059  RH  016%=      5-min Rain = 0
KFR1 211937Z 24024KT 21/M06 A296 RMK A01 T02121058  RH  016%=      5-min Rain = 0
KFR1 211938Z 23023G28KT 21/M06 A296 RMK A01 T02131056  RH  016%=      5-min Rain = 0
KFR1 211939Z 23027G32KT 21/M06 A296 RMK A01 T02141056  RH  016%=      5-min Rain = 0
KFR1 211940Z 24029G34KT 22/M06 A296 RMK A01 T02151057  RH  016%=      5-min Rain = 0
KFR1 211941Z 23022KT 22/M06 A296 RMK A01 T02151058  RH  016%=      5-min Rain = 0
KFR1 211942Z 24021G28KT 22/M06 A296 RMK A01 T02161056  RH  016%=      5-min Rain = 0
KFR1 211943Z 23026KT 22/M06 A296 RMK A01 T02181055  RH  016%=      5-min Rain = 0
KFR1 211944Z 23023G28KT 22/M06 A296 RMK A01 T02191055  RH  016%=      5-min Rain = 0
KFR1 211945Z 24016G21KT 22/M05 A296 RMK A01 T02201052  RH  016%=      5-min Rain = 0
KFR1 211946Z 23021G26KT 22/M05 A296 RMK A01 T02231051  RH  015%=      5-min Rain = 0
KFR1 211947Z 23024G29KT 23/M05 A296 RMK A01 T02251054  RH  015%=      5-min Rain = 0
KFR1 211948Z 24025G31KT 22/M06 A296 RMK A01 T02241055  RH  015%=      5-min Rain = 0
KFR1 211949Z 24026G33KT 22/M06 A296 RMK A01 T02231058  RH  015%=      5-min Rain = 0
KFR1 211950Z 25029G35KT 22/M06 A2959 RMK A01 T02211058  RH  015%=      5-min Rain = 0
KFR1 211951Z 24028KT 22/M06 A2959 RMK A01 T02201058  RH  015%=      5-min Rain = 0
KFR1 211952Z 24028G35KT 22/M06 A2959 RMK A01 T02201059  RH  015%=      5-min Rain = 0
KFR1 211953Z 24030G35KT 22/M06 A2959 RMK A01 T02211061  RH  015%=      5-min Rain = 0
KFR1 211954Z 24029KT 22/M06 A2959 RMK A01 T02221061  RH  015%=      5-min Rain = 0
KFR1 211955Z 23028G34KT 22/M06 A2959 RMK A01 T02221060  RH  015%=      5-min Rain = 0
KFR1 211956Z 23031G37KT 22/M06 A2958 RMK A01 T02221059  RH  015%=      5-min Rain = 0
KFR1 211957Z 23029G34KT 22/M06 A2958 RMK A01 T02221060  RH  015%=      5-min Rain = 0
KFR1 211958Z 24028G33KT 22/M06 A2958 RMK A01 T02241058  RH  015%=      5-min Rain = 0
KFR1 211959Z 24031G36KT 22/M06 A2958 RMK A01 T02241058  RH  015%=      5-min Rain = 0
KFR1 212000Z 24026KT 22/M06 A2959 RMK A01 T02241058  RH  015%=      5-min Rain = 0
KFR1 212001Z 23027G32KT 22/M06 A2958 RMK A01 T02241056  RH  015%=      5-min Rain = 0
KFR1 212002Z 24027G33KT 22/M06 A2958 RMK A01 T02241057  RH  015%=      5-min Rain = 0
KFR1 212003Z 24030G37KT 22/M06 A2958 RMK A01 T02241057  RH  015%=      5-min Rain = 0
KFR1 212004Z 24025G31KT 22/M06 A2958 RMK A01 T02231059  RH  015%=      5-min Rain = 0
KFR1 212005Z 23028G34KT 22/M06 A2958 RMK A01 T02231057  RH  015%=      5-min Rain = 0
KFR1 212006Z 24028G36KT 22/M06 A2958 RMK A01 T02241057  RH  015%=      5-min Rain = 0
KFR1 212007Z 24027G32KT 22/M06 A2958 RMK A01 T02241059  RH  015%=      5-min Rain = 0
KFR1 212008Z 23027G34KT 23/M06 A2958 RMK A01 T02251058  RH  015%=      5-min Rain = 0
KFR1 212009Z 24032G40KT 23/M06 A2958 RMK A01 T02261059  RH  014%=      5-min Rain = 0
KFR1 212010Z 23031KT 23/M06 A2957 RMK A01 T02261060  RH  014%=      5-min Rain = 0
KFR1 212011Z 23028G33KT 23/M06 A2957 RMK A01 T02251061  RH  014%=      5-min Rain = 0
KFR1 212012Z 24025KT 22/M06 A2958 RMK A01 T02241061  RH  014%=      5-min Rain = 0
KFR1 212013Z 24030G35KT 22/M06 A2958 RMK A01 T02231062  RH  014%=      5-min Rain = 0
KFR1 212014Z 25029G36KT 22/M06 A2957 RMK A01 T02231060  RH  015%=      5-min Rain = 0
KFR1 212015Z 25030G35KT 22/M06 A2957 RMK A01 T02221060  RH  015%=      5-min Rain = 0
KFR1 212016Z 24024G30KT 22/M06 A2958 RMK A01 T02211060  RH  015%=      5-min Rain = 0
KFR1 212017Z 24020G28KT 22/M06 A2958 RMK A01 T02201057  RH  015%=      5-min Rain = 0
KFR1 212018Z 24025G30KT 22/M06 A2957 RMK A01 T02221055  RH  015%=      5-min Rain = 0
KFR1 212019Z 24026G33KT 22/M06 A2957 RMK A01 T02231057  RH  015%=      5-min Rain = 0
KFR1 212020Z 24028G33KT 22/M06 A2957 RMK A01 T02231057  RH  015%=      5-min Rain = 0
KFR1 212021Z 24022G28KT 22/M06 A2957 RMK A01 T02211056  RH  015%=      5-min Rain = 0
KFR1 212022Z 24022G28KT 22/M05 A2957 RMK A01 T02211054  RH  015%=      5-min Rain = 0
KFR1 212023Z 24023KT 22/M05 A2957 RMK A01 T02211052  RH  016%=      5-min Rain = 0
KFR1 212024Z 24024G30KT 22/M05 A2957 RMK A01 T02211050  RH  016%=      5-min Rain = 0
KFR1 212025Z 23024G33KT 22/M05 A2957 RMK A01 T02211050  RH  016%=      5-min Rain = 0
KFR1 212026Z 23021KT 22/M05 A2957 RMK A01 T02211050  RH  016%=      5-min Rain = 0
KFR1 212027Z 24022KT 22/M05 A2957 RMK A01 T02221049  RH  016%=      5-min Rain = 0
KFR1 212028Z 24023KT 22/M05 A2957 RMK A01 T02231049  RH  016%=      5-min Rain = 0
KFR1 212029Z 24026G34KT 22/M05 A2957 RMK A01 T02221051  RH  016%=      5-min Rain = 0
KFR1 212030Z 24028G36KT 22/M06 A2957 RMK A01 T02201058  RH  015%=      5-min Rain = 0
KFR1 212031Z 24026G33KT 22/M06 A2957 RMK A01 T02181058  RH  015%=      5-min Rain = 0
KFR1 212032Z 24027G32KT 22/M06 A2957 RMK A01 T02181058  RH  015%=      5-min Rain = 0
KFR1 212033Z 24021G27KT 22/M06 A2957 RMK A01 T02181056  RH  016%=      5-min Rain = 0
KFR1 212034Z 25020G27KT 22/M05 A2957 RMK A01 T02171054  RH  016%=      5-min Rain = 0
KFR1 212035Z 24022KT 22/M05 A2957 RMK A01 T02171053  RH  016%=      5-min Rain = 0
KFR1 212036Z 24021G26KT 22/M05 A2957 RMK A01 T02171052  RH  016%=      5-min Rain = 0
KFR1 212037Z 24022KT 22/M05 A2957 RMK A01 T02181052  RH  016%=      5-min Rain = 0
KFR1 212038Z 25020KT 22/M05 A2957 RMK A01 T02191052  RH  016%=      5-min Rain = 0
KFR1 212039Z 24024KT 22/M05 A2957 RMK A01 T02191052  RH  016%=      5-min Rain = 0
KFR1 212040Z 24025G31KT 22/M05 A2957 RMK A01 T02181053  RH  016%=      5-min Rain = 0
KFR1 212041Z 24024G29KT 22/M05 A2957 RMK A01 T02171053  RH  016%=      5-min Rain = 0
KFR1 212042Z 25022KT 22/M05 A2957 RMK A01 T02171053  RH  016%=      5-min Rain = 0
KFR1 212043Z 24021KT 22/M05 A2957 RMK A01 T02171052  RH  016%=      5-min Rain = 0
KFR1 212044Z 24018G23KT 22/M05 A2957 RMK A01 T02171050  RH  016%=      5-min Rain = 0
KFR1 212045Z 23025KT 22/M05 A2956 RMK A01 T02181049  RH  016%=      5-min Rain = 0
KFR1 212046Z 23023G28KT 22/M05 A2956 RMK A01 T02191049  RH  016%=      5-min Rain = 0
KFR1 212047Z 23024G30KT 22/M05 A2956 RMK A01 T02191049  RH  016%=      5-min Rain = 0
KFR1 212048Z 22028G33KT 22/M05 A2956 RMK A01 T02201049  RH  016%=      5-min Rain = 0
KFR1 212049Z 23027G34KT 22/M05 A2956 RMK A01 T02201050  RH  016%=      5-min Rain = 0
KFR1 212050Z 23029G36KT 22/M05 A2956 RMK A01 T02201050  RH  016%=      5-min Rain = 0
KFR1 212051Z 23023G29KT 22/M05 A2956 RMK A01 T02191051  RH  016%=      5-min Rain = 0
KFR1 212052Z 23021KT 22/M05 A2957 RMK A01 T02191049  RH  016%=      5-min Rain = 0
KFR1 212053Z 23025G30KT 22/M05 A2956 RMK A01 T02191050  RH  016%=      5-min Rain = 0
KFR1 212054Z 23022G27KT 22/M05 A2956 RMK A01 T02191050  RH  016%=      5-min Rain = 0
KFR1 212055Z 24026KT 22/M05 A2956 RMK A01 T02181051  RH  016%=      5-min Rain = 0
KFR1 212056Z 23024KT 22/M05 A2956 RMK A01 T02181051  RH  016%=      5-min Rain = 0
KFR1 212057Z 23019G25KT 22/M05 A2956 RMK A01 T02191050  RH  016%=      5-min Rain = 0
KFR1 212058Z 23022G28KT 22/M05 A2956 RMK A01 T02181050  RH  016%=      5-min Rain = 0
KFR1 212059Z 23022KT 22/M05 A2956 RMK A01 T02181051  RH  016%=      5-min Rain = 0
KFR1 212100Z 22022KT 22/M05 A2956 RMK A01 T02181051  RH  016%=      5-min Rain = 0
KFR1 212101Z 23023KT 22/M05 A2956 RMK A01 T02181051  RH  016%=      5-min Rain = 0
KFR1 212102Z 23025G31KT 22/M05 A2956 RMK A01 T02171052  RH  016%=      5-min Rain = 0
KFR1 212103Z 24025KT 22/M05 A2956 RMK A01 T02171052  RH  016%=      5-min Rain = 0
KFR1 212104Z 23028G34KT 22/M05 A2956 RMK A01 T02171052  RH  016%=      5-min Rain = 0
KFR1 212105Z 23030G36KT 22/M05 A2956 RMK A01 T02161053  RH  016%=      5-min Rain = 0
KFR1 212106Z 23028G35KT 22/M05 A2956 RMK A01 T02161053  RH  016%=      5-min Rain = 0
KFR1 212107Z 23027G36KT 22/M05 A2956 RMK A01 T02161053  RH  016%=      5-min Rain = 0
KFR1 212108Z 23032G37KT 22/M06 A2955 RMK A01 T02161055  RH  016%=      5-min Rain = 0
KFR1 212109Z 23026KT 22/M06 A2955 RMK A01 T02151055  RH  016%=      5-min Rain = 0
KFR1 212110Z 23029G34KT 22/M06 A2956 RMK A01 T02151055  RH  016%=      5-min Rain = 0
KFR1 212111Z 23028KT 22/M06 A2955 RMK A01 T02151056  RH  016%=      5-min Rain = 0
KFR1 212112Z 22029KT 22/M06 A2955 RMK A01 T02151055  RH  016%=      5-min Rain = 0
KFR1 212113Z 23023G31KT 21/M06 A2956 RMK A01 T02141056  RH  016%=      5-min Rain = 0
KFR1 212114Z 23027G33KT 21/M06 A2955 RMK A01 T02141056  RH  016%=      5-min Rain = 0
KFR1 212115Z 23028G33KT 22/M06 A2955 RMK A01 T02151057  RH  016%=      5-min Rain = 0
KFR1 212116Z 23024KT 21/M06 A2956 RMK A01 T02141057  RH  016%=      5-min Rain = 0
KFR1 212117Z 23022G31KT 21/M06 A2956 RMK A01 T02141056  RH  016%=      5-min Rain = 0
KFR1 212118Z 23026G32KT 21/M06 A2956 RMK A01 T02141056  RH  016%=      5-min Rain = 0
KFR1 212119Z 23029G34KT 21/M06 A2955 RMK A01 T02141057  RH  016%=      5-min Rain = 0
KFR1 212120Z 23029G36KT 21/M06 A2955 RMK A01 T02141056  RH  016%=      5-min Rain = 0
KFR1 212121Z 23023KT 21/M06 A2956 RMK A01 T02141055  RH  016%=      5-min Rain = 0
KFR1 212122Z 23026KT 21/M06 A2955 RMK A01 T02141055  RH  016%=      5-min Rain = 0
KFR1 212123Z 24022KT 21/M05 A2955 RMK A01 T02141054  RH  016%=      5-min Rain = 0
KFR1 212124Z 23025G30KT 22/M05 A2955 RMK A01 T02151054  RH  016%=      5-min Rain = 0
KFR1 212125Z 24023G28KT 21/M06 A2955 RMK A01 T02141055  RH  016%=      5-min Rain = 0
KFR1 212126Z 23026G32KT 21/M05 A2955 RMK A01 T02141054  RH  016%=      5-min Rain = 0
KFR1 212127Z 23024KT 22/M05 A2955 RMK A01 T02151054  RH  016%=      5-min Rain = 0
KFR1 212128Z 24026G31KT 21/M05 A2955 RMK A01 T02141054  RH  016%=      5-min Rain = 0
KFR1 212129Z 23029KT 21/M06 A2955 RMK A01 T02141055  RH  016%=      5-min Rain = 0
KFR1 212130Z 24023G28KT 21/M06 A2955 RMK A01 T02141055  RH  016%=      5-min Rain = 0
KFR1 212131Z 23026G31KT 21/M05 A2955 RMK A01 T02141054  RH  016%=      5-min Rain = 0
KFR1 212132Z 23028G35KT 21/M05 A2955 RMK A01 T02141054  RH  016%=      5-min Rain = 0
KFR1 212133Z 23027G32KT 22/M06 A2955 RMK A01 T02151055  RH  016%=      5-min Rain = 0
KFR1 212134Z 23025KT 22/M06 A2955 RMK A01 T02151055  RH  016%=      5-min Rain = 0
KFR1 212135Z 23025G30KT 22/M06 A2955 RMK A01 T02151055  RH  016%=      5-min Rain = 0
KFR1 212136Z 24026G33KT 22/M05 A2956 RMK A01 T02151054  RH  016%=      5-min Rain = 0
KFR1 212137Z 24027G32KT 22/M05 A2955 RMK A01 T02151053  RH  016%=      5-min Rain = 0
KFR1 212138Z 23025G30KT 21/M05 A2956 RMK A01 T02141051  RH  017%=      5-min Rain = 0
KFR1 212139Z 22024KT 21/M05 A2955 RMK A01 T02131049  RH  017%=      5-min Rain = 0
KFR1 212140Z 22024G29KT 21/M05 A2955 RMK A01 T02141046  RH  017%=      5-min Rain = 0
KFR1 212141Z 22025G31KT 21/M04 A2955 RMK A01 T02121044  RH  018%=      5-min Rain = 0
KFR1 212142Z 22026KT 21/M04 A2955 RMK A01 T02111044  RH  018%=      5-min Rain = 0
KFR1 212143Z 22024G29KT 21/M04 A2956 RMK A01 T02101044  RH  018%=      5-min Rain = 0
KFR1 212144Z 23027G33KT 21/M04 A2955 RMK A01 T02101044  RH  018%=      5-min Rain = 0
KFR1 212145Z 23022KT 21/M04 A2956 RMK A01 T02091044  RH  018%=      5-min Rain = 0
KFR1 212146Z 22023KT 21/M04 A2956 RMK A01 T02091044  RH  018%=      5-min Rain = 0
KFR1 212147Z 22026G33KT 21/M05 A2955 RMK A01 T02091045  RH  018%=      5-min Rain = 0
KFR1 212148Z 22028KT 21/M05 A2955 RMK A01 T02081047  RH  018%=      5-min Rain = 0
KFR1 212149Z 22024G29KT 21/M05 A2955 RMK A01 T02071047  RH  018%=      5-min Rain = 0
KFR1 212150Z 22028G35KT 21/M05 A2955 RMK A01 T02071047  RH  018%=      5-min Rain = 0
KFR1 212151Z 22025KT 21/M05 A2955 RMK A01 T02071047  RH  018%=      5-min Rain = 0
KFR1 212152Z 23020G26KT 21/M05 A2955 RMK A01 T02071047  RH  018%=      5-min Rain = 0
KFR1 212153Z 22020G25KT 21/M05 A2955 RMK A01 T02061047  RH  018%=      5-min Rain = 0
KFR1 212154Z 22022G27KT 21/M05 A2955 RMK A01 T02061047  RH  018%=      5-min Rain = 0
KFR1 212155Z 22023KT 21/M05 A2955 RMK A01 T02061048  RH  018%=      5-min Rain = 0
KFR1 212156Z 22025KT 21/M05 A2955 RMK A01 T02061048  RH  018%=      5-min Rain = 0
KFR1 212157Z 22021KT 21/M05 A2955 RMK A01 T02061048  RH  018%=      5-min Rain = 0
KFR1 212158Z 22020G27KT 21/M05 A2956 RMK A01 T02051048  RH  018%=      5-min Rain = 0
KFR1 212159Z 23016KT 21/M05 A2956 RMK A01 T02051048  RH  018%=      5-min Rain = 0
KFR1 212200Z 23017G22KT 21/M05 A2956 RMK A01 T02051047  RH  018%=      5-min Rain = 0
KFR1 212201Z 22027G32KT 21/M05 A2956 RMK A01 T02051048  RH  018%=      5-min Rain = 0
KFR1 212202Z 22024G30KT 21/M05 A2956 RMK A01 T02051050  RH  018%=      5-min Rain = 0
KFR1 212203Z 23023G29KT 21/M05 A2956 RMK A01 T02051051  RH  017%=      5-min Rain = 0
KFR1 212204Z 23028G33KT 21/M05 A2955 RMK A01 T02051050  RH  017%=      5-min Rain = 0
KFR1 212205Z 23025G30KT 21/M05 A2955 RMK A01 T02051051  RH  017%=      5-min Rain = 0
KFR1 212206Z 22024G30KT 21/M05 A2955 RMK A01 T02051051  RH  017%=      5-min Rain = 0
KFR1 212207Z 22022G27KT 21/M05 A2955 RMK A01 T02051051  RH  017%=      5-min Rain = 0
KFR1 212208Z 23017KT 21/M05 A2955 RMK A01 T02051051  RH  017%=      5-min Rain = 0
KFR1 212209Z 23021G29KT 20/M05 A2955 RMK A01 T02041050  RH  018%=      5-min Rain = 0
KFR1 212210Z 23022G27KT 20/M05 A2955 RMK A01 T02041051  RH  017%=      5-min Rain = 0
KFR1 212211Z 23022G27KT 20/M05 A2955 RMK A01 T02041051  RH  018%=      5-min Rain = 0
KFR1 212212Z 23023G28KT 20/M05 A2955 RMK A01 T02041051  RH  018%=      5-min Rain = 0
KFR1 212213Z 23022G27KT 20/M05 A2955 RMK A01 T02041051  RH  017%=      5-min Rain = 0
KFR1 212214Z 23023G31KT 20/M05 A2955 RMK A01 T02041050  RH  018%=      5-min Rain = 0
KFR1 212215Z 23022KT 20/M05 A2955 RMK A01 T02041051  RH  017%=      5-min Rain = 0
KFR1 212216Z 23021KT 21/M05 A2955 RMK A01 T02051050  RH  017%=      5-min Rain = 0
KFR1 212217Z 23020KT 21/M05 A2955 RMK A01 T02051050  RH  018%=      5-min Rain = 0
KFR1 212218Z 22020KT 21/M05 A2955 RMK A01 T02051050  RH  018%=      5-min Rain = 0
KFR1 212219Z 22020KT 21/M05 A2955 RMK A01 T02051049  RH  018%=      5-min Rain = 0
KFR1 212220Z 22022KT 21/M05 A2955 RMK A01 T02051049  RH  018%=      5-min Rain = 0
KFR1 212221Z 22021KT 21/M05 A2955 RMK A01 T02051049  RH  018%=      5-min Rain = 0
KFR1 212222Z 22021KT 21/M05 A2955 RMK A01 T02051049  RH  018%=      5-min Rain = 0
KFR1 212223Z 22020KT 21/M05 A2955 RMK A01 T02051049  RH  018%=      5-min Rain = 0
KFR1 212224Z 22024KT 21/M05 A2955 RMK A01 T02051049  RH  018%=      5-min Rain = 0
KFR1 212225Z 22022G27KT 21/M05 A2955 RMK A01 T02051049  RH  018%=      5-min Rain = 0
KFR1 212226Z 22018KT 21/M05 A2955 RMK A01 T02051049  RH  018%=      5-min Rain = 0
KFR1 212227Z 23019G24KT 21/M05 A2955 RMK A01 T02051049  RH  018%=      5-min Rain = 0
KFR1 212228Z 22020KT 21/M05 A2955 RMK A01 T02051048  RH  018%=      5-min Rain = 0
KFR1 212229Z 22018G23KT 21/M05 A2955 RMK A01 T02051048  RH  018%=      5-min Rain = 0
KFR1 212230Z 22019KT 21/M05 A2955 RMK A01 T02051047  RH  018%=      5-min Rain = 0
KFR1 212231Z 22018KT 21/M05 A2955 RMK A01 T02051048  RH  018%=      5-min Rain = 0
KFR1 212232Z 22015KT 21/M05 A2955 RMK A01 T02061048  RH  018%=      5-min Rain = 0
KFR1 212233Z 22016G22KT 21/M05 A2955 RMK A01 T02061047  RH  018%=      5-min Rain = 0
KFR1 212234Z 22016G21KT 21/M05 A2955 RMK A01 T02061047  RH  018%=      5-min Rain = 0
KFR1 212235Z 22021KT 21/M05 A2955 RMK A01 T02071047  RH  018%=      5-min Rain = 0
KFR1 212236Z 22021KT 21/M05 A2955 RMK A01 T02071048  RH  018%=      5-min Rain = 0
KFR1 212237Z 22023G29KT 21/M05 A2954 RMK A01 T02071049  RH  017%=      5-min Rain = 0
KFR1 212238Z 22020KT 21/M05 A2954 RMK A01 T02071050  RH  017%=      5-min Rain = 0
KFR1 212239Z 21021G27KT 21/M05 A2954 RMK A01 T02071049  RH  017%=      5-min Rain = 0
KFR1 212240Z 23020KT 21/M05 A2954 RMK A01 T02071049  RH  017%=      5-min Rain = 0
KFR1 212241Z 23020KT 21/M05 A2954 RMK A01 T02071049  RH  017%=      5-min Rain = 0
KFR1 212242Z 22022G27KT 21/M05 A2954 RMK A01 T02071050  RH  017%=      5-min Rain = 0
KFR1 212243Z 22025G30KT 21/M05 A2955 RMK A01 T02071051  RH  017%=      5-min Rain = 0
KFR1 212244Z 23024KT 21/M05 A2955 RMK A01 T02071053  RH  017%=      5-min Rain = 0
KFR1 212245Z 22022G27KT 21/M05 A2954 RMK A01 T02071053  RH  017%=      5-min Rain = 0
KFR1 212246Z 23024KT 21/M05 A2955 RMK A01 T02071053  RH  017%=      5-min Rain = 0
KFR1 212247Z 23023KT 21/M05 A2955 RMK A01 T02081053  RH  017%=      5-min Rain = 0
KFR1 212248Z 23020G28KT 21/M05 A2955 RMK A01 T02081052  RH  017%=      5-min Rain = 0
KFR1 212249Z 23022G28KT 21/M05 A2955 RMK A01 T02071053  RH  017%=      5-min Rain = 0
KFR1 212250Z 22021G26KT 21/M05 A2955 RMK A01 T02081052  RH  017%=      5-min Rain = 0
KFR1 212251Z 22019G25KT 21/M05 A2955 RMK A01 T02071052  RH  017%=      5-min Rain = 0
KFR1 212252Z 23023G29KT 21/M05 A2955 RMK A01 T02071053  RH  017%=      5-min Rain = 0
KFR1 212253Z 22021G26KT 21/M05 A2955 RMK A01 T02071052  RH  017%=      5-min Rain = 0
KFR1 212254Z 22023G28KT 21/M05 A2955 RMK A01 T02071052  RH  017%=      5-min Rain = 0
KFR1 212255Z 22020G25KT 21/M05 A2955 RMK A01 T02071052  RH  017%=      5-min Rain = 0
KFR1 212256Z 22023G28KT 21/M05 A2955 RMK A01 T02061051  RH  017%=      5-min Rain = 0
KFR1 212257Z 22024G30KT 21/M05 A2954 RMK A01 T02061052  RH  017%=      5-min Rain = 0
KFR1 212258Z 22020KT 21/M05 A2955 RMK A01 T02061052  RH  017%=      5-min Rain = 0
KFR1 212259Z 22020KT 21/M05 A2955 RMK A01 T02061051  RH  017%=      5-min Rain = 0
KFR1 212300Z 22022KT 21/M05 A2954 RMK A01 T02061052  RH  017%=      5-min Rain = 0
KFR1 212301Z 22020KT 21/M05 A2955 RMK A01 T02061053  RH  017%=      5-min Rain = 0
KFR1 212302Z 22019G24KT 21/M05 A2954 RMK A01 T02051052  RH  017%=      5-min Rain = 0
KFR1 212303Z 22021G26KT 21/M05 A2954 RMK A01 T02051052  RH  017%=      5-min Rain = 0
KFR1 212304Z 22020G25KT 21/M05 A2955 RMK A01 T02051053  RH  017%=      5-min Rain = 0
KFR1 212305Z 22020G25KT 21/M05 A2955 RMK A01 T02051054  RH  017%=      5-min Rain = 0
KFR1 212306Z 22019KT 21/M05 A2955 RMK A01 T02051054  RH  017%=      5-min Rain = 0
KFR1 212307Z 22018G25KT 21/M05 A2955 RMK A01 T02051054  RH  017%=      5-min Rain = 0
KFR1 212308Z 22020G27KT 21/M05 A2954 RMK A01 T02051054  RH  017%=      5-min Rain = 0
KFR1 212309Z 22018KT 20/M06 A2954 RMK A01 T02041055  RH  017%=      5-min Rain = 0
KFR1 212310Z 22020KT 20/M05 A2954 RMK A01 T02041054  RH  017%=      5-min Rain = 0
KFR1 212311Z 22016KT 20/M05 A2954 RMK A01 T02031054  RH  017%=      5-min Rain = 0
KFR1 212312Z 22018G23KT 20/M05 A2954 RMK A01 T02041054  RH  017%=      5-min Rain = 0
KFR1 212313Z 22018KT 20/M05 A2954 RMK A01 T02031054  RH  017%=      5-min Rain = 0
KFR1 212314Z 23015G21KT 20/M05 A2954 RMK A01 T02031054  RH  017%=      5-min Rain = 0
KFR1 212315Z 22018KT 20/M06 A2954 RMK A01 T02041055  RH  017%=      5-min Rain = 0
KFR1 212316Z 22020KT 20/M06 A2954 RMK A01 T02041056  RH  017%=      5-min Rain = 0
KFR1 212317Z 22020G26KT 20/M06 A2953 RMK A01 T02041056  RH  017%=      5-min Rain = 0
KFR1 212318Z 22020G27KT 20/M06 A2953 RMK A01 T02031057  RH  017%=      5-min Rain = 0
KFR1 212319Z 22017KT 20/M06 A2954 RMK A01 T02041057  RH  017%=      5-min Rain = 0
KFR1 212320Z 22021KT 20/M06 A2954 RMK A01 T02041056  RH  017%=      5-min Rain = 0
KFR1 212321Z 22020KT 20/M06 A2953 RMK A01 T02041058  RH  017%=      5-min Rain = 0
KFR1 212322Z 22024KT 20/M06 A2953 RMK A01 T02041060  RH  016%=      5-min Rain = 0
KFR1 212323Z 22019KT 20/M06 A2953 RMK A01 T02041060  RH  016%=      5-min Rain = 0
KFR1 212324Z 22021G29KT 20/M06 A2953 RMK A01 T02041060  RH  016%=      5-min Rain = 0
KFR1 212325Z 22024G32KT 20/M06 A2953 RMK A01 T02041061  RH  016%=      5-min Rain = 0
KFR1 212326Z 22024G31KT 20/M06 A2953 RMK A01 T02041062  RH  016%=      5-min Rain = 0
KFR1 212327Z 22023G28KT 20/M06 A2953 RMK A01 T02041062  RH  016%=      5-min Rain = 0
KFR1 212328Z 22021G26KT 20/M06 A2953 RMK A01 T02041061  RH  016%=      5-min Rain = 0
KFR1 212329Z 22025KT 20/M06 A2953 RMK A01 T02041061  RH  016%=      5-min Rain = 0
KFR1 212330Z 22022KT 20/M06 A2953 RMK A01 T02031062  RH  016%=      5-min Rain = 0
KFR1 212331Z 22022G27KT 20/M06 A2953 RMK A01 T02031063  RH  016%=      5-min Rain = 0
KFR1 212332Z 22021KT 20/M06 A2953 RMK A01 T02031063  RH  016%=      5-min Rain = 0
KFR1 212333Z 22022KT 20/M06 A2953 RMK A01 T02031063  RH  016%=      5-min Rain = 0
KFR1 212334Z 22020KT 20/M06 A2953 RMK A01 T02031063  RH  016%=      5-min Rain = 0
KFR1 212335Z 21021KT 20/M06 A2953 RMK A01 T02031063  RH  016%=      5-min Rain = 0
KFR1 212336Z 22019G26KT 20/M06 A2953 RMK A01 T02031063  RH  016%=      5-min Rain = 0
KFR1 212337Z 22020KT 20/M06 A2953 RMK A01 T02041063  RH  016%=      5-min Rain = 0
KFR1 212338Z 22022G29KT 20/M06 A2953 RMK A01 T02041064  RH  016%=      5-min Rain = 0
KFR1 212339Z 22025G30KT 20/M06 A2952 RMK A01 T02041064  RH  016%=      5-min Rain = 0
KFR1 212340Z 22022G28KT 21/M07 A2953 RMK A01 T02051065  RH  016%=      5-min Rain = 0
KFR1 212341Z 22022KT 21/M07 A2953 RMK A01 T02051065  RH  016%=      5-min Rain = 0
KFR1 212342Z 22019KT 21/M06 A2953 RMK A01 T02051064  RH  016%=      5-min Rain = 0
KFR1 212343Z 22020G27KT 20/M06 A2953 RMK A01 T02041064  RH  016%=      5-min Rain = 0
KFR1 212344Z 22021KT 20/M07 A2952 RMK A01 T02041065  RH  016%=      5-min Rain = 0
KFR1 212345Z 22020KT 21/M07 A2952 RMK A01 T02051065  RH  016%=      5-min Rain = 0
KFR1 212346Z 21020KT 21/M06 A2953 RMK A01 T02051064  RH  016%=      5-min Rain = 0
KFR1 212347Z 22019KT 20/M06 A2952 RMK A01 T02041063  RH  016%=      5-min Rain = 0
KFR1 212348Z 21017KT 20/M06 A2953 RMK A01 T02031062  RH  016%=      5-min Rain = 0
KFR1 212349Z 21018KT 20/M06 A2952 RMK A01 T02011062  RH  016%=      5-min Rain = 0
KFR1 212350Z 22016G21KT 20/M06 A2952 RMK A01 T02011061  RH  017%=      5-min Rain = 0
KFR1 212351Z 21020KT 20/M06 A2952 RMK A01 T02001060  RH  017%=      5-min Rain = 0
KFR1 212352Z 22018KT 20/M06 A2952 RMK A01 T02001060  RH  017%=      5-min Rain = 0
KFR1 212353Z 21018KT 20/M06 A2952 RMK A01 T02001059  RH  017%=      5-min Rain = 0
KFR1 212354Z 21017KT 20/M06 A2952 RMK A01 T01991058  RH  017%=      5-min Rain = 0
KFR1 212355Z 22016KT 20/M06 A2952 RMK A01 T01991057  RH  017%=      5-min Rain = 0
KFR1 212356Z 22018KT 20/M06 A2952 RMK A01 T01981056  RH  017%=      5-min Rain = 0
KFR1 212357Z 22018KT 20/M06 A2952 RMK A01 T01971056  RH  017%=      5-min Rain = 0
KFR1 212358Z 21018KT 20/M06 A2952 RMK A01 T01971056  RH  018%=      5-min Rain = 0
KFR1 212359Z 22016G21KT 20/M06 A2952 RMK A01 T01971055  RH  018%=      5-min Rain = 0
KFR1 220000Z 21019KT 20/M05 A2952 RMK A01 T01961054  RH  018%=      5-min Rain = 0
KFR1 220001Z 21019KT 20/M06 A2952 RMK A01 T01961055  RH  018%=      5-min Rain = 0
KFR1 220002Z 21017G23KT 20/M05 A2952 RMK A01 T01961054  RH  018%=      5-min Rain = 0
KFR1 220003Z 21018G23KT 20/M05 A2952 RMK A01 T01951054  RH  018%=      5-min Rain = 0
KFR1 220004Z 21017KT 19/M05 A2952 RMK A01 T01941054  RH  018%=      5-min Rain = 0
KFR1 220005Z 21015KT 19/M05 A2952 RMK A01 T01931054  RH  018%=      5-min Rain = 0
KFR1 220006Z 21016KT 19/M05 A2952 RMK A01 T01921054  RH  018%=      5-min Rain = 0
KFR1 220007Z 20016KT 19/M05 A2952 RMK A01 T01911053  RH  019%=      5-min Rain = 0
KFR1 220008Z 21016KT 19/M05 A2952 RMK A01 T01911053  RH  019%=      5-min Rain = 0
KFR1 220009Z 21018KT 19/M05 A2951 RMK A01 T01901053  RH  019%=      5-min Rain = 0
KFR1 220010Z 21018KT 19/M05 A2952 RMK A01 T01891053  RH  019%=      5-min Rain = 0
KFR1 220011Z 21018KT 19/M05 A2952 RMK A01 T01891052  RH  019%=      5-min Rain = 0
KFR1 220012Z 21018G24KT 19/M05 A2951 RMK A01 T01891052  RH  019%=      5-min Rain = 0
KFR1 220013Z 21019KT 19/M05 A2951 RMK A01 T01891052  RH  019%=      5-min Rain = 0
KFR1 220014Z 21016KT 19/M05 A2951 RMK A01 T01881052  RH  019%=      5-min Rain = 0
KFR1 220015Z 21019KT 19/M05 A2951 RMK A01 T01871052  RH  019%=      5-min Rain = 0
KFR1 220016Z 21018KT 19/M05 A2951 RMK A01 T01881051  RH  019%=      5-min Rain = 0
KFR1 220017Z 21017KT 19/M05 A2951 RMK A01 T01871051  RH  019%=      5-min Rain = 0
KFR1 220018Z 21015KT 19/M05 A2952 RMK A01 T01861051  RH  020%=      5-min Rain = 0
KFR1 220019Z 21016KT 19/M05 A2952 RMK A01 T01861051  RH  020%=      5-min Rain = 0
KFR1 220020Z 21015KT 19/M05 A2952 RMK A01 T01851051  RH  020%=      5-min Rain = 0
KFR1 220021Z 20015KT 19/M05 A2952 RMK A01 T01851051  RH  020%=      5-min Rain = 0
KFR1 220022Z 21015KT 18/M05 A2952 RMK A01 T01831051  RH  020%=      5-min Rain = 0
KFR1 220023Z 21014KT 18/M05 A2952 RMK A01 T01831050  RH  020%=      5-min Rain = 0
KFR1 220024Z 21015KT 18/M05 A2952 RMK A01 T01821050  RH  020%=      5-min Rain = 0
KFR1 220025Z 20014KT 18/M05 A2952 RMK A01 T01811050  RH  020%=      5-min Rain = 0
KFR1 220026Z 20015KT 18/M05 A2952 RMK A01 T01811050  RH  020%=      5-min Rain = 0
KFR1 220027Z 20013KT 18/M05 A2952 RMK A01 T01801050  RH  020%=      5-min Rain = 0
KFR1 220028Z 20013KT 18/M05 A2952 RMK A01 T01801050  RH  021%=      5-min Rain = 0
KFR1 220029Z 20013KT 18/M05 A2952 RMK A01 T01791049  RH  021%=      5-min Rain = 0
KFR1 220030Z 20014KT 18/M05 A2952 RMK A01 T01781049  RH  021%=      5-min Rain = 0
KFR1 220031Z 20014KT 18/M05 A2952 RMK A01 T01771049  RH  021%=      5-min Rain = 0
KFR1 220032Z 20013KT 18/M05 A2952 RMK A01 T01771049  RH  021%=      5-min Rain = 0
KFR1 220033Z 20014KT 18/M05 A2952 RMK A01 T01761049  RH  021%=      5-min Rain = 0
KFR1 220034Z 20014KT 18/M05 A2952 RMK A01 T01761049  RH  021%=      5-min Rain = 0
KFR1 220035Z 20014KT 18/M05 A2952 RMK A01 T01751049  RH  021%=      5-min Rain = 0
KFR1 220036Z 21014KT 18/M05 A2952 RMK A01 T01751049  RH  021%=      5-min Rain = 0
KFR1 220037Z 20015KT 17/M05 A2952 RMK A01 T01741048  RH  021%=      5-min Rain = 0
KFR1 220038Z 20015KT 17/M05 A2952 RMK A01 T01741048  RH  022%=      5-min Rain = 0
KFR1 220039Z 20013KT 17/M05 A2952 RMK A01 T01741048  RH  022%=      5-min Rain = 0
KFR1 220040Z 20013KT 17/M05 A2952 RMK A01 T01731048  RH  022%=      5-min Rain = 0
KFR1 220041Z 20012KT 17/M05 A2952 RMK A01 T01721048  RH  022%=      5-min Rain = 0
KFR1 220042Z 20014KT 17/M05 A2952 RMK A01 T01711047  RH  022%=      5-min Rain = 0
KFR1 220043Z 20014KT 17/M05 A2952 RMK A01 T01711047  RH  022%=      5-min Rain = 0
KFR1 220044Z 20013KT 17/M05 A2952 RMK A01 T01711047  RH  022%=      5-min Rain = 0
KFR1 220045Z 20013KT 17/M05 A2952 RMK A01 T01711047  RH  022%=      5-min Rain = 0
KFR1 220046Z 20013KT 17/M05 A2952 RMK A01 T01721046  RH  022%=      5-min Rain = 0
KFR1 220047Z 20012KT 17/M05 A2952 RMK A01 T01721046  RH  022%=      5-min Rain = 0
KFR1 220048Z 20012KT 17/M05 A2952 RMK A01 T01721046  RH  022%=      5-min Rain = 0
KFR1 220049Z 20013KT 17/M05 A2952 RMK A01 T01721045  RH  022%=      5-min Rain = 0
KFR1 220050Z 20012KT 17/M05 A2952 RMK A01 T01721045  RH  022%=      5-min Rain = 0
KFR1 220051Z 20012KT 17/M04 A2952 RMK A01 T01721044  RH  022%=      5-min Rain = 0
KFR1 220052Z 20012KT 17/M05 A2952 RMK A01 T01721045  RH  022%=      5-min Rain = 0
KFR1 220053Z 20013KT 17/M05 A2952 RMK A01 T01721045  RH  022%=      5-min Rain = 0
KFR1 220054Z 20012KT 17/M04 A2952 RMK A01 T01731044  RH  022%=      5-min Rain = 0
KFR1 220055Z 20012KT 17/M04 A2952 RMK A01 T01741044  RH  022%=      5-min Rain = 0
KFR1 220056Z 20012KT 17/M05 A2952 RMK A01 T01741045  RH  022%=      5-min Rain = 0
KFR1 220057Z 20014KT 17/M05 A2952 RMK A01 T01741045  RH  022%=      5-min Rain = 0
KFR1 220058Z 20013KT 17/M05 A2952 RMK A01 T01741045  RH  022%=      5-min Rain = 0
KFR1 220059Z 20015KT 18/M05 A2952 RMK A01 T01751045  RH  022%=      5-min Rain = 0
KFR1 220100Z 20011KT 18/M05 A2952 RMK A01 T01761045  RH  022%=      5-min Rain = 0
KFR1 220101Z 20013KT 18/M05 A2952 RMK A01 T01751046  RH  022%=      5-min Rain = 0
KFR1 220102Z 20013KT 18/M05 A2952 RMK A01 T01751046  RH  022%=      5-min Rain = 0
KFR1 220103Z 20011KT 18/M05 A2952 RMK A01 T01761046  RH  022%=      5-min Rain = 0
KFR1 220104Z 20013KT 18/M05 A2952 RMK A01 T01761046  RH  022%=      5-min Rain = 0
KFR1 220105Z 20013KT 18/M05 A2952 RMK A01 T01771046  RH  022%=      5-min Rain = 0
KFR1 220106Z 20014KT 18/M05 A2952 RMK A01 T01771046  RH  021%=      5-min Rain = 0
KFR1 220107Z 20013KT 18/M05 A2952 RMK A01 T01771047  RH  021%=      5-min Rain = 0
KFR1 220108Z 20013KT 18/M05 A2952 RMK A01 T01771047  RH  021%=      5-min Rain = 0
KFR1 220109Z 20013KT 18/M05 A2952 RMK A01 T01771048  RH  021%=      5-min Rain = 0
KFR1 220110Z 21012KT 18/M05 A2952 RMK A01 T01781048  RH  021%=      5-min Rain = 0
KFR1 220111Z 20016G21KT 18/M05 A2952 RMK A01 T01781049  RH  021%=      5-min Rain = 0
KFR1 220112Z 21014KT 18/M05 A2952 RMK A01 T01801049  RH  021%=      5-min Rain = 0
KFR1 220113Z 21014G19KT 18/M05 A2952 RMK A01 T01811049  RH  020%=      5-min Rain = 0
KFR1 220114Z 20015KT 18/M05 A2952 RMK A01 T01811050  RH  020%=      5-min Rain = 0
KFR1 220115Z 20016KT 18/M05 A2952 RMK A01 T01811050  RH  020%=      5-min Rain = 0
KFR1 220116Z 20016KT 18/M05 A2952 RMK A01 T01821050  RH  020%=      5-min Rain = 0
KFR1 220117Z 21015KT 18/M05 A2952 RMK A01 T01821050  RH  020%=      5-min Rain = 0
KFR1 220118Z 20017KT 18/M05 A2952 RMK A01 T01821050  RH  020%=      5-min Rain = 0
KFR1 220119Z 20015KT 18/M05 A2952 RMK A01 T01821050  RH  020%=      5-min Rain = 0
KFR1 220120Z 20018KT 18/M05 A2952 RMK A01 T01831050  RH  020%=      5-min Rain = 0
KFR1 220121Z 20016KT 18/M05 A2952 RMK A01 T01831050  RH  020%=      5-min Rain = 0
KFR1 220122Z 20016G22KT 18/M05 A2952 RMK A01 T01831050  RH  020%=      5-min Rain = 0
KFR1 220123Z 20016KT 18/M05 A2952 RMK A01 T01831050  RH  020%=      5-min Rain = 0
KFR1 220124Z 20017G22KT 18/M05 A2951 RMK A01 T01831050  RH  020%=      5-min Rain = 0
KFR1 220125Z 20016G21KT 18/M05 A2952 RMK A01 T01831049  RH  020%=      5-min Rain = 0
KFR1 220126Z 20019KT 18/M05 A2952 RMK A01 T01831049  RH  020%=      5-min Rain = 0
KFR1 220127Z 20015G20KT 18/M05 A2952 RMK A01 T01831049  RH  020%=      5-min Rain = 0
KFR1 220128Z 20016KT 18/M05 A2952 RMK A01 T01821049  RH  020%=      5-min Rain = 0
KFR1 220129Z 20017G22KT 18/M05 A2951 RMK A01 T01821049  RH  020%=      5-min Rain = 0
KFR1 220130Z 20018G23KT 18/M05 A2951 RMK A01 T01811049  RH  021%=      5-min Rain = 0
KFR1 220131Z 20019KT 18/M05 A2951 RMK A01 T01811049  RH  021%=      5-min Rain = 0
KFR1 220132Z 20018G24KT 18/M05 A2951 RMK A01 T01811048  RH  021%=      5-min Rain = 0
KFR1 220133Z 20016G21KT 18/M05 A2951 RMK A01 T01811048  RH  021%=      5-min Rain = 0
KFR1 220134Z 20018KT 18/M05 A2951 RMK A01 T01801048  RH  021%=      5-min Rain = 0
KFR1 220135Z 20018KT 18/M05 A2951 RMK A01 T01791048  RH  021%=      5-min Rain = 0
KFR1 220136Z 20018G24KT 18/M05 A2951 RMK A01 T01791048  RH  021%=      5-min Rain = 0
KFR1 220137Z 20016KT 18/M05 A2951 RMK A01 T01791048  RH  021%=      5-min Rain = 0
KFR1 220138Z 20018KT 18/M05 A2951 RMK A01 T01781048  RH  021%=      5-min Rain = 0
KFR1 220139Z 20018KT 18/M05 A2951 RMK A01 T01781048  RH  021%=      5-min Rain = 0
KFR1 220140Z 19017G22KT 18/M05 A2951 RMK A01 T01781047  RH  021%=      5-min Rain = 0
KFR1 220141Z 20018KT 18/M05 A2951 RMK A01 T01771047  RH  021%=      5-min Rain = 0
KFR1 220142Z 20019KT 18/M05 A2951 RMK A01 T01761048  RH  021%=      5-min Rain = 0
KFR1 220143Z 20018G23KT 18/M05 A2951 RMK A01 T01771048  RH  021%=      5-min Rain = 0
KFR1 220144Z 20018KT 18/M05 A2951 RMK A01 T01771048  RH  021%=      5-min Rain = 0
KFR1 220145Z 20019KT 18/M05 A2951 RMK A01 T01771048  RH  021%=      5-min Rain = 0
KFR1 220146Z 20017KT 18/M05 A2951 RMK A01 T01781048  RH  021%=      5-min Rain = 0
KFR1 220147Z 20016KT 18/M05 A2951 RMK A01 T01781048  RH  021%=      5-min Rain = 0
KFR1 220148Z 20017G23KT 18/M05 A295 RMK A01 T01771048  RH  021%=      5-min Rain = 0
KFR1 220149Z 20016KT 18/M05 A295 RMK A01 T01771048  RH  021%=      5-min Rain = 0
KFR1 220150Z 20018KT 18/M05 A295 RMK A01 T01771048  RH  021%=      5-min Rain = 0
KFR1 220151Z 20017KT 18/M05 A2951 RMK A01 T01771048  RH  021%=      5-min Rain = 0
KFR1 220152Z 20018G23KT 18/M05 A2951 RMK A01 T01771048  RH  021%=      5-min Rain = 0
KFR1 220153Z 20018KT 18/M05 A2951 RMK A01 T01771048  RH  021%=      5-min Rain = 0
KFR1 220154Z 20016KT 18/M05 A2951 RMK A01 T01771048  RH  021%=      5-min Rain = 0
KFR1 220155Z 20017KT 18/M05 A2951 RMK A01 T01761048  RH  021%=      5-min Rain = 0
KFR1 220156Z 20016KT 18/M05 A2951 RMK A01 T01761049  RH  021%=      5-min Rain = 0
KFR1 220157Z 20017G22KT 18/M05 A2951 RMK A01 T01761048  RH  021%=      5-min Rain = 0
KFR1 220158Z 20019G26KT 18/M05 A2951 RMK A01 T01751048  RH  021%=      5-min Rain = 0
KFR1 220159Z 19019KT 18/M05 A2951 RMK A01 T01761049  RH  021%=      5-min Rain = 0
KFR1 220200Z 20018KT 18/M05 A2951 RMK A01 T01761049  RH  021%=      5-min Rain = 0
KFR1 220201Z 20019KT 18/M05 A295 RMK A01 T01751049  RH  021%=      5-min Rain = 0
KFR1 220202Z 19017G22KT 18/M05 A2951 RMK A01 T01751049  RH  021%=      5-min Rain = 0
KFR1 220203Z 20019G25KT 18/M05 A295 RMK A01 T01751049  RH  021%=      5-min Rain = 0
KFR1 220204Z 20017G22KT 18/M05 A2951 RMK A01 T01751049  RH  021%=      5-min Rain = 0
KFR1 220205Z 20018KT 18/M05 A2951 RMK A01 T01751049  RH  021%=      5-min Rain = 0
KFR1 220206Z 20016G22KT 18/M05 A2951 RMK A01 T01751049  RH  021%=      5-min Rain = 0
KFR1 220207Z 20016KT 18/M05 A2951 RMK A01 T01751049  RH  021%=      5-min Rain = 0
KFR1 220208Z 20015KT 17/M05 A2951 RMK A01 T01741049  RH  021%=      5-min Rain = 0
KFR1 220209Z 20019KT 17/M05 A2951 RMK A01 T01731049  RH  022%=      5-min Rain = 0
KFR1 220210Z 20017KT 17/M05 A2951 RMK A01 T01731050  RH  021%=      5-min Rain = 0
KFR1 220211Z 20017G23KT 18/M05 A2951 RMK A01 T01751049  RH  021%=      5-min Rain = 0
KFR1 220212Z 19017KT 18/M05 A2951 RMK A01 T01751049  RH  021%=      5-min Rain = 0
KFR1 220213Z 20016G21KT 17/M05 A2951 RMK A01 T01741050  RH  021%=      5-min Rain = 0
KFR1 220214Z 19018KT 17/M05 A2951 RMK A01 T01731050  RH  021%=      5-min Rain = 0
KFR1 220215Z 20016KT 17/M05 A2951 RMK A01 T01731050  RH  021%=      5-min Rain = 0
KFR1 220216Z 20015KT 17/M05 A2951 RMK A01 T01731050  RH  021%=      5-min Rain = 0
KFR1 220217Z 20014G19KT 17/M05 A2951 RMK A01 T01731050  RH  021%=      5-min Rain = 0
KFR1 220218Z 20016KT 17/M05 A2951 RMK A01 T01721050  RH  021%=      5-min Rain = 0
KFR1 220219Z 20015KT 17/M05 A2951 RMK A01 T01721050  RH  022%=      5-min Rain = 0
KFR1 220220Z 20016KT 17/M05 A2951 RMK A01 T01721050  RH  022%=      5-min Rain = 0
KFR1 220221Z 20014KT 17/M05 A2951 RMK A01 T01711050  RH  022%=      5-min Rain = 0
KFR1 220222Z 20014KT 17/M05 A2951 RMK A01 T01711050  RH  022%=      5-min Rain = 0
KFR1 220223Z 20014KT 17/M05 A2951 RMK A01 T01701050  RH  022%=      5-min Rain = 0
KFR1 220224Z 20014G20KT 17/M05 A2951 RMK A01 T01701050  RH  022%=      5-min Rain = 0
KFR1 220225Z 20013KT 17/M05 A2951 RMK A01 T01691050  RH  022%=      5-min Rain = 0
KFR1 220226Z 20015KT 17/M05 A2951 RMK A01 T01691050  RH  022%=      5-min Rain = 0
KFR1 220227Z 19015KT 17/M05 A2952 RMK A01 T01691050  RH  022%=      5-min Rain = 0
KFR1 220228Z 21013KT 17/M05 A2952 RMK A01 T01691050  RH  022%=      5-min Rain = 0
KFR1 220229Z 20012KT 17/M05 A2952 RMK A01 T01681050  RH  022%=      5-min Rain = 0
KFR1 220230Z 20014G19KT 17/M05 A2952 RMK A01 T01681050  RH  022%=      5-min Rain = 0
KFR1 220231Z 20014KT 17/M05 A2952 RMK A01 T01681050  RH  022%=      5-min Rain = 0
KFR1 220232Z 20011KT 17/M05 A2952 RMK A01 T01681050  RH  022%=      5-min Rain = 0
KFR1 220233Z 20013KT 17/M05 A2952 RMK A01 T01681050  RH  022%=      5-min Rain = 0
KFR1 220234Z 20013KT 17/M05 A2952 RMK A01 T01681050  RH  022%=      5-min Rain = 0
KFR1 220235Z 20014KT 17/M05 A2952 RMK A01 T01681050  RH  022%=      5-min Rain = 0
KFR1 220236Z 20011G16KT 17/M05 A2952 RMK A01 T01681051  RH  022%=      5-min Rain = 0
KFR1 220237Z 20013KT 17/M05 A2952 RMK A01 T01681050  RH  022%=      5-min Rain = 0
KFR1 220238Z 20013KT 17/M05 A2952 RMK A01 T01671051  RH  022%=      5-min Rain = 0
KFR1 220239Z 19013KT 17/M05 A2952 RMK A01 T01671050  RH  022%=      5-min Rain = 0
KFR1 220240Z 20011KT 17/M05 A2952 RMK A01 T01671050  RH  022%=      5-min Rain = 0
KFR1 220241Z 20014KT 17/M05 A2952 RMK A01 T01661050  RH  022%=      5-min Rain = 0
KFR1 220242Z 20012KT 17/M05 A2952 RMK A01 T01651050  RH  022%=      5-min Rain = 0
KFR1 220243Z 20011KT 16/M05 A2952 RMK A01 T01641050  RH  023%=      5-min Rain = 0
KFR1 220244Z 20014KT 16/M05 A2952 RMK A01 T01631050  RH  023%=      5-min Rain = 0
KFR1 220245Z 20012KT 16/M05 A2952 RMK A01 T01631050  RH  023%=      5-min Rain = 0
KFR1 220246Z 20013KT 16/M05 A2952 RMK A01 T01641050  RH  023%=      5-min Rain = 0
KFR1 220247Z 20011KT 16/M05 A2953 RMK A01 T01631050  RH  023%=      5-min Rain = 0
KFR1 220248Z 20011KT 16/M05 A2953 RMK A01 T01631050  RH  023%=      5-min Rain = 0
KFR1 220249Z 20010KT 16/M05 A2953 RMK A01 T01621050  RH  023%=      5-min Rain = 0
KFR1 220250Z 20010KT 16/M05 A2953 RMK A01 T01611050  RH  023%=      5-min Rain = 0
KFR1 220251Z 21010KT 16/M05 A2952 RMK A01 T01601050  RH  023%=      5-min Rain = 0
KFR1 220252Z 21012KT 16/M05 A2952 RMK A01 T01611050  RH  023%=      5-min Rain = 0
KFR1 220253Z 21012KT 16/M05 A2952 RMK A01 T01601050  RH  023%=      5-min Rain = 0
KFR1 220254Z 20010KT 16/M05 A2952 RMK A01 T01611050  RH  023%=      5-min Rain = 0
KFR1 220255Z 21011KT 16/M05 A2952 RMK A01 T01621050  RH  023%=      5-min Rain = 0
KFR1 220256Z 20011KT 16/M05 A2952 RMK A01 T01621051  RH  023%=      5-min Rain = 0
KFR1 220257Z 21010KT 16/M05 A2952 RMK A01 T01631051  RH  023%=      5-min Rain = 0
KFR1 220258Z 20014KT 16/M05 A2952 RMK A01 T01631051  RH  023%=      5-min Rain = 0
KFR1 220259Z 20012KT 16/M05 A2952 RMK A01 T01621051  RH  023%=      5-min Rain = 0
KFR1 220300Z 20011KT 16/M05 A2953 RMK A01 T01631051  RH  023%=      5-min Rain = 0
KFR1 220301Z 21013KT 16/M05 A2953 RMK A01 T01631051  RH  023%=      5-min Rain = 0
KFR1 220302Z 21014KT 16/M05 A2953 RMK A01 T01631051  RH  023%=      5-min Rain = 0
KFR1 220303Z 21014KT 16/M05 A2953 RMK A01 T01641051  RH  022%=      5-min Rain = 0
KFR1 220304Z 20014KT 16/M05 A2953 RMK A01 T01641052  RH  022%=      5-min Rain = 0
KFR1 220305Z 20014KT 16/M05 A2952 RMK A01 T01641052  RH  022%=      5-min Rain = 0
KFR1 220306Z 21012KT 17/M05 A2953 RMK A01 T01651051  RH  022%=      5-min Rain = 0
KFR1 220307Z 20013KT 16/M05 A2953 RMK A01 T01631052  RH  022%=      5-min Rain = 0
KFR1 220308Z 21012KT 16/M05 A2953 RMK A01 T01621051  RH  023%=      5-min Rain = 0
KFR1 220309Z 21011KT 16/M05 A2952 RMK A01 T01621051  RH  023%=      5-min Rain = 0
KFR1 220310Z 21011KT 16/M05 A2953 RMK A01 T01621051  RH  023%=      5-min Rain = 0
KFR1 220311Z 21012KT 16/M05 A2953 RMK A01 T01611051  RH  023%=      5-min Rain = 0
KFR1 220312Z 21011KT 16/M05 A2953 RMK A01 T01611051  RH  023%=      5-min Rain = 0
KFR1 220313Z 21012KT 16/M05 A2953 RMK A01 T01601051  RH  023%=      5-min Rain = 0
KFR1 220314Z 21011KT 16/M05 A2953 RMK A01 T01601051  RH  023%=      5-min Rain = 0
KFR1 220315Z 21011KT 16/M05 A2953 RMK A01 T01601051  RH  023%=      5-min Rain = 0
KFR1 220316Z 21011KT 16/M05 A2953 RMK A01 T01601051  RH  023%=      5-min Rain = 0
KFR1 220317Z 21011KT 16/M05 A2953 RMK A01 T01601051  RH  023%=      5-min Rain = 0
KFR1 220318Z 21012KT 16/M05 A2952 RMK A01 T01601051  RH  023%=      5-min Rain = 0
KFR1 220319Z 21012KT 16/M05 A2952 RMK A01 T01591052  RH  023%=      5-min Rain = 0
KFR1 220320Z 21012KT 16/M05 A2952 RMK A01 T01611052  RH  023%=      5-min Rain = 0
KFR1 220321Z 21013KT 16/M05 A2952 RMK A01 T01611052  RH  023%=      5-min Rain = 0
KFR1 220322Z 21013KT 16/M05 A2952 RMK A01 T01611052  RH  023%=      5-min Rain = 0
KFR1 220323Z 21013KT 16/M05 A2952 RMK A01 T01611053  RH  023%=      5-min Rain = 0
KFR1 220324Z 21013KT 16/M05 A2952 RMK A01 T01621053  RH  022%=      5-min Rain = 0
KFR1 220325Z 21014KT 16/M05 A2952 RMK A01 T01621053  RH  022%=      5-min Rain = 0
KFR1 220326Z 21014KT 16/M05 A2952 RMK A01 T01621053  RH  022%=      5-min Rain = 0
KFR1 220327Z 21014KT 16/M05 A2952 RMK A01 T01621053  RH  022%=      5-min Rain = 0
KFR1 220328Z 21015KT 16/M05 A2952 RMK A01 T01631053  RH  022%=      5-min Rain = 0
KFR1 220329Z 21015KT 16/M05 A2952 RMK A01 T01631054  RH  022%=      5-min Rain = 0
KFR1 220330Z 21015KT 16/M05 A2952 RMK A01 T01641054  RH  022%=      5-min Rain = 0
KFR1 220331Z 21014KT 16/M05 A2952 RMK A01 T01641053  RH  022%=      5-min Rain = 0
KFR1 220332Z 22014KT 16/M05 A2952 RMK A01 T01641054  RH  022%=      5-min Rain = 0
KFR1 220333Z 21015KT 16/M05 A2952 RMK A01 T01631054  RH  022%=      5-min Rain = 0
KFR1 220334Z 21015KT 17/M05 A2952 RMK A01 T01651054  RH  022%=      5-min Rain = 0
KFR1 220335Z 22015KT 17/M05 A2952 RMK A01 T01661054  RH  022%=      5-min Rain = 0
KFR1 220336Z 22015KT 17/M05 A2952 RMK A01 T01661054  RH  022%=      5-min Rain = 0
KFR1 220337Z 21015KT 17/M06 A2952 RMK A01 T01661055  RH  022%=      5-min Rain = 0
KFR1 220338Z 22017KT 17/M06 A2952 RMK A01 T01661055  RH  022%=      5-min Rain = 0
KFR1 220339Z 21019KT 17/M05 A2952 RMK A01 T01671054  RH  022%=      5-min Rain = 0
KFR1 220340Z 21019KT 17/M06 A2952 RMK A01 T01681055  RH  021%=      5-min Rain = 0
KFR1 220341Z 22017KT 17/M06 A2952 RMK A01 T01691055  RH  021%=      5-min Rain = 0
KFR1 220342Z 22019KT 17/M06 A2952 RMK A01 T01701055  RH  021%=      5-min Rain = 0
KFR1 220343Z 22020KT 17/M05 A2952 RMK A01 T01701054  RH  021%=      5-min Rain = 0
KFR1 220344Z 22018KT 17/M06 A2952 RMK A01 T01701055  RH  021%=      5-min Rain = 0
KFR1 220345Z 21022G28KT 17/M06 A2951 RMK A01 T01711055  RH  021%=      5-min Rain = 0
KFR1 220346Z 21018KT 17/M06 A2952 RMK A01 T01721055  RH  021%=      5-min Rain = 0
KFR1 220347Z 21019KT 17/M06 A2951 RMK A01 T01721055  RH  021%=      5-min Rain = 0
KFR1 220348Z 22021KT 17/M06 A2951 RMK A01 T01711055  RH  021%=      5-min Rain = 0
KFR1 220349Z 21020KT 17/M06 A2951 RMK A01 T01711055  RH  021%=      5-min Rain = 0
KFR1 220350Z 22018G24KT 17/M06 A2952 RMK A01 T01721055  RH  021%=      5-min Rain = 0
KFR1 220351Z 21018G26KT 17/M06 A2952 RMK A01 T01711055  RH  021%=      5-min Rain = 0
KFR1 220352Z 21020KT 17/M06 A2952 RMK A01 T01711055  RH  021%=      5-min Rain = 0
KFR1 220353Z 21021G26KT 17/M06 A2951 RMK A01 T01711055  RH  021%=      5-min Rain = 0
KFR1 220354Z 22019G24KT 17/M06 A2951 RMK A01 T01711055  RH  021%=      5-min Rain = 0
KFR1 220355Z 21018G24KT 17/M06 A2952 RMK A01 T01701055  RH  021%=      5-min Rain = 0
KFR1 220356Z 22017KT 17/M05 A2952 RMK A01 T01701054  RH  021%=      5-min Rain = 0
KFR1 220357Z 22020KT 17/M06 A2951 RMK A01 T01691055  RH  021%=      5-min Rain = 0
KFR1 220358Z 22019KT 17/M05 A2952 RMK A01 T01701054  RH  021%=      5-min Rain = 0
KFR1 220359Z 22017KT 17/M05 A2952 RMK A01 T01701054  RH  021%=      5-min Rain = 0
KFR1 220400Z 22019KT 17/M05 A2952 RMK A01 T01701054  RH  021%=      5-min Rain = 0
KFR1 220401Z 22021KT 17/M05 A2951 RMK A01 T01691054  RH  021%=      5-min Rain = 0
KFR1 220402Z 22019KT 17/M05 A2952 RMK A01 T01701054  RH  021%=      5-min Rain = 0
KFR1 220403Z 21019G24KT 17/M05 A2951 RMK A01 T01701054  RH  021%=      5-min Rain = 0
KFR1 220404Z 21019KT 17/M05 A2952 RMK A01 T01691054  RH  021%=      5-min Rain = 0
KFR1 220405Z 22021KT 17/M05 A2951 RMK A01 T01691054  RH  021%=      5-min Rain = 0
KFR1 220406Z 21021KT 17/M05 A2951 RMK A01 T01701054  RH  021%=      5-min Rain = 0
KFR1 220407Z 21021G27KT 17/M05 A2951 RMK A01 T01701054  RH  021%=      5-min Rain = 0
KFR1 220408Z 21018G23KT 17/M05 A2951 RMK A01 T01711054  RH  021%=      5-min Rain = 0
KFR1 220409Z 21019KT 17/M05 A2952 RMK A01 T01701054  RH  021%=      5-min Rain = 0
KFR1 220410Z 22020G25KT 17/M05 A2951 RMK A01 T01691054  RH  021%=      5-min Rain = 0
KFR1 220411Z 22018KT 17/M05 A2952 RMK A01 T01691054  RH  021%=      5-min Rain = 0
KFR1 220412Z 21018KT 17/M05 A2952 RMK A01 T01681054  RH  021%=      5-min Rain = 0
KFR1 220413Z 21019KT 17/M05 A2952 RMK A01 T01671054  RH  022%=      5-min Rain = 0
KFR1 220414Z 21019KT 17/M05 A2951 RMK A01 T01671054  RH  022%=      5-min Rain = 0
KFR1 220415Z 21018KT 17/M05 A2952 RMK A01 T01671054  RH  021%=      5-min Rain = 0
KFR1 220416Z 21018KT 17/M05 A2952 RMK A01 T01681054  RH  022%=      5-min Rain = 0
KFR1 220417Z 21018KT 17/M05 A2952 RMK A01 T01671054  RH  022%=      5-min Rain = 0
KFR1 220418Z 21016KT 17/M05 A2952 RMK A01 T01671053  RH  022%=      5-min Rain = 0
KFR1 220419Z 21019G24KT 17/M05 A2952 RMK A01 T01671053  RH  022%=      5-min Rain = 0
KFR1 220420Z 21021G26KT 17/M05 A2952 RMK A01 T01671054  RH  022%=      5-min Rain = 0
KFR1 220421Z 21018KT 17/M05 A2952 RMK A01 T01671054  RH  021%=      5-min Rain = 0
KFR1 220422Z 22017KT 17/M05 A2952 RMK A01 T01671054  RH  022%=      5-min Rain = 0
KFR1 220423Z 21017KT 17/M05 A2952 RMK A01 T01671053  RH  022%=      5-min Rain = 0
KFR1 220424Z 21018KT 17/M05 A2952 RMK A01 T01661053  RH  022%=      5-min Rain = 0
KFR1 220425Z 21017KT 17/M05 A2952 RMK A01 T01661053  RH  022%=      5-min Rain = 0
KFR1 220426Z 21017KT 17/M05 A2952 RMK A01 T01661053  RH  022%=      5-min Rain = 0
KFR1 220427Z 21017KT 17/M05 A2952 RMK A01 T01651053  RH  022%=      5-min Rain = 0
KFR1 220428Z 21016KT 17/M05 A2952 RMK A01 T01651053  RH  022%=      5-min Rain = 0
KFR1 220429Z 21014KT 17/M05 A2952 RMK A01 T01651053  RH  022%=      5-min Rain = 0
KFR1 220430Z 21014KT 16/M05 A2952 RMK A01 T01641053  RH  022%=      5-min Rain = 0
KFR1 220431Z 21014KT 16/M05 A2952 RMK A01 T01631053  RH  022%=      5-min Rain = 0
KFR1 220432Z 22014KT 16/M05 A2952 RMK A01 T01621053  RH  022%=      5-min Rain = 0
KFR1 220433Z 21015G20KT 16/M05 A2952 RMK A01 T01631053  RH  022%=      5-min Rain = 0
KFR1 220434Z 21012KT 16/M05 A2953 RMK A01 T01621053  RH  022%=      5-min Rain = 0
KFR1 220435Z 20011KT 16/M05 A2953 RMK A01 T01601053  RH  023%=      5-min Rain = 0
KFR1 220436Z 20011KT 15/M05 A2953 RMK A01 T01521054  RH  024%=      5-min Rain = 0
KFR1 220437Z 20011KT 14/M05 A2953 RMK A01 T01441054  RH  025%=      5-min Rain = 0
KFR1 220438Z 20012KT 14/M05 A2953 RMK A01 T01421053  RH  026%=      5-min Rain = 0
KFR1 220439Z 20010KT 14/M05 A2953 RMK A01 T01411052  RH  026%=      5-min Rain = 0
KFR1 220440Z 21011KT 14/M05 A2953 RMK A01 T01381052  RH  026%=      5-min Rain = 0
KFR1 220441Z 21011KT 14/M05 A2953 RMK A01 T01381051  RH  026%=      5-min Rain = 0
KFR1 220442Z 21012KT 14/M05 A2953 RMK A01 T01411051  RH  026%=      5-min Rain = 0
KFR1 220443Z 21012KT 15/M05 A2953 RMK A01 T01451050  RH  026%=      5-min Rain = 0
KFR1 220444Z 20010KT 15/M05 A2953 RMK A01 T01461050  RH  025%=      5-min Rain = 0
KFR1 220445Z 20010KT 14/M05 A2953 RMK A01 T01421051  RH  026%=      5-min Rain = 0
KFR1 220446Z 20010KT 14/M05 A2953 RMK A01 T01381052  RH  026%=      5-min Rain = 0
KFR1 220447Z 19011KT 14/M05 A2953 RMK A01 T01351052  RH  027%=      5-min Rain = 0
KFR1 220448Z 19012KT 13/M05 A2953 RMK A01 T01321052  RH  028%=      5-min Rain = 0
KFR1 220449Z 19012KT 13/M05 A2953 RMK A01 T01311051  RH  028%=      5-min Rain = 0
KFR1 220450Z 19010KT 13/M05 A2953 RMK A01 T01311051  RH  028%=      5-min Rain = 0
KFR1 220451Z 19011KT 13/M05 A2953 RMK A01 T01301050  RH  028%=      5-min Rain = 0
KFR1 220452Z 19010KT 13/M05 A2953 RMK A01 T01291050  RH  028%=      5-min Rain = 0
KFR1 220453Z 19011KT 13/M05 A2953 RMK A01 T01291050  RH  028%=      5-min Rain = 0
KFR1 220454Z 19011KT 13/M05 A2953 RMK A01 T01291050  RH  028%=      5-min Rain = 0
KFR1 220455Z 19010KT 13/M05 A2953 RMK A01 T01291049  RH  029%=      5-min Rain = 0
KFR1 220456Z 19010KT 13/M05 A2953 RMK A01 T01281049  RH  029%=      5-min Rain = 0
KFR1 220457Z 19011KT 13/M05 A2953 RMK A01 T01271049  RH  029%=      5-min Rain = 0
KFR1 220458Z 19011KT 13/M05 A2953 RMK A01 T01261049  RH  029%=      5-min Rain = 0
KFR1 220459Z 18012KT 13/M05 A2953 RMK A01 T01271049  RH  029%=      5-min Rain = 0
KFR1 220500Z 19013KT 13/M05 A2953 RMK A01 T01271048  RH  029%=      5-min Rain = 0
KFR1 220501Z 19014KT 13/M05 A2953 RMK A01 T01281048  RH  029%=      5-min Rain = 0
KFR1 220502Z 19014KT 13/M05 A2953 RMK A01 T01291048  RH  029%=      5-min Rain = 0
KFR1 220503Z 19014KT 13/M05 A2953 RMK A01 T01301048  RH  029%=      5-min Rain = 0
KFR1 220504Z 19013KT 13/M05 A2953 RMK A01 T01311048  RH  028%=      5-min Rain = 0
KFR1 220505Z 19015KT 13/M05 A2953 RMK A01 T01311048  RH  028%=      5-min Rain = 0
KFR1 220506Z 19015KT 13/M05 A2953 RMK A01 T01311048  RH  028%=      5-min Rain = 0
KFR1 220507Z 19013KT 13/M05 A2953 RMK A01 T01321049  RH  028%=      5-min Rain = 0
KFR1 220508Z 19013KT 13/M05 A2953 RMK A01 T01311049  RH  028%=      5-min Rain = 0
KFR1 220509Z 19014KT 13/M05 A2953 RMK A01 T01311048  RH  028%=      5-min Rain = 0
KFR1 220510Z 19014KT 13/M05 A2953 RMK A01 T01311049  RH  028%=      5-min Rain = 0
KFR1 220511Z 20013KT 13/M05 A2953 RMK A01 T01301049  RH  028%=      5-min Rain = 0
KFR1 220512Z 20014KT 13/M05 A2953 RMK A01 T01301049  RH  028%=      5-min Rain = 0
KFR1 220513Z 20014KT 13/M05 A2953 RMK A01 T01311049  RH  028%=      5-min Rain = 0
KFR1 220514Z 20014KT 13/M05 A2953 RMK A01 T01311049  RH  028%=      5-min Rain = 0
KFR1 220515Z 20014KT 13/M05 A2953 RMK A01 T01301049  RH  028%=      5-min Rain = 0
KFR1 220516Z 20013KT 13/M05 A2953 RMK A01 T01301049  RH  029%=      5-min Rain = 0
KFR1 220517Z 20014KT 13/M05 A2953 RMK A01 T01291049  RH  029%=      5-min Rain = 0
KFR1 220518Z 20015KT 13/M05 A2953 RMK A01 T01291049  RH  029%=      5-min Rain = 0
KFR1 220519Z 20015KT 13/M05 A2953 RMK A01 T01281049  RH  029%=      5-min Rain = 0
KFR1 220520Z 20014KT 13/M05 A2953 RMK A01 T01291049  RH  029%=      5-min Rain = 0
KFR1 220521Z 20014KT 13/M05 A2953 RMK A01 T01281049  RH  029%=      5-min Rain = 0
KFR1 220522Z 20014KT 13/M05 A2953 RMK A01 T01281049  RH  029%=      5-min Rain = 0
KFR1 220523Z 20015KT 13/M05 A2953 RMK A01 T01291049  RH  029%=      5-min Rain = 0
KFR1 220524Z 20015KT 13/M05 A2953 RMK A01 T01291049  RH  029%=      5-min Rain = 0
KFR1 220525Z 20015KT 13/M05 A2953 RMK A01 T01281049  RH  029%=      5-min Rain = 0
KFR1 220526Z 20014KT 13/M05 A2953 RMK A01 T01281049  RH  029%=      5-min Rain = 0
KFR1 220527Z 20014KT 13/M05 A2954 RMK A01 T01281048  RH  029%=      5-min Rain = 0
KFR1 220528Z 20014KT 13/M05 A2954 RMK A01 T01271048  RH  029%=      5-min Rain = 0
KFR1 220529Z 20013KT 13/M05 A2954 RMK A01 T01261049  RH  029%=      5-min Rain = 0
KFR1 220530Z 20013KT 13/M05 A2954 RMK A01 T01251049  RH  029%=      5-min Rain = 0
KFR1 220531Z 20014KT 12/M05 A2954 RMK A01 T01241048  RH  030%=      5-min Rain = 0
KFR1 220532Z 20013KT 12/M05 A2954 RMK A01 T01231048  RH  030%=      5-min Rain = 0
KFR1 220533Z 20014KT 12/M05 A2954 RMK A01 T01231049  RH  030%=      5-min Rain = 0
KFR1 220534Z 20013KT 12/M05 A2954 RMK A01 T01221048  RH  030%=      5-min Rain = 0
KFR1 220535Z 20013KT 12/M05 A2954 RMK A01 T01221048  RH  030%=      5-min Rain = 0
KFR1 220536Z 20013KT 12/M05 A2954 RMK A01 T01221048  RH  030%=      5-min Rain = 0
KFR1 220537Z 20013KT 12/M05 A2954 RMK A01 T01211049  RH  030%=      5-min Rain = 0
KFR1 220538Z 20013KT 12/M05 A2954 RMK A01 T01211048  RH  030%=      5-min Rain = 0
KFR1 220539Z 20013KT 12/M05 A2954 RMK A01 T01201048  RH  031%=      5-min Rain = 0
KFR1 220540Z 20013KT 12/M05 A2954 RMK A01 T01201048  RH  031%=      5-min Rain = 0
KFR1 220541Z 20013KT 12/M05 A2954 RMK A01 T01191048  RH  031%=      5-min Rain = 0
KFR1 220542Z 19014KT 12/M05 A2954 RMK A01 T01191048  RH  031%=      5-min Rain = 0
KFR1 220543Z 19014KT 12/M05 A2954 RMK A01 T01181049  RH  031%=      5-min Rain = 0
KFR1 220544Z 19013KT 12/M05 A2954 RMK A01 T01171048  RH  031%=      5-min Rain = 0
KFR1 220545Z 19015KT 12/M05 A2954 RMK A01 T01171048  RH  031%=      5-min Rain = 0
KFR1 220546Z 20015KT 12/M05 A2954 RMK A01 T01171048  RH  031%=      5-min Rain = 0
KFR1 220547Z 20015KT 12/M05 A2954 RMK A01 T01181048  RH  031%=      5-min Rain = 0
KFR1 220548Z 20014KT 12/M05 A2954 RMK A01 T01181048  RH  031%=      5-min Rain = 0
KFR1 220549Z 20015KT 12/M05 A2954 RMK A01 T01181047  RH  031%=      5-min Rain = 0
KFR1 220550Z 20014KT 12/M05 A2954 RMK A01 T01181047  RH  031%=      5-min Rain = 0
KFR1 220551Z 20014KT 12/M05 A2954 RMK A01 T01181048  RH  031%=      5-min Rain = 0
KFR1 220552Z 20014KT 12/M05 A2954 RMK A01 T01201047  RH  031%=      5-min Rain = 0
KFR1 220553Z 20014KT 12/M05 A2954 RMK A01 T01211048  RH  031%=      5-min Rain = 0
KFR1 220554Z 20014KT 12/M05 A2954 RMK A01 T01211048  RH  030%=      5-min Rain = 0
KFR1 220555Z 20015KT 12/M05 A2953 RMK A01 T01221048  RH  030%=      5-min Rain = 0
KFR1 220556Z 20015KT 12/M05 A2954 RMK A01 T01231047  RH  030%=      5-min Rain = 0
KFR1 220557Z 20015KT 12/M05 A2953 RMK A01 T01231048  RH  030%=      5-min Rain = 0
KFR1 220558Z 20015KT 12/M05 A2953 RMK A01 T01231048  RH  030%=      5-min Rain = 0
KFR1 220559Z 20016KT 12/M05 A2953 RMK A01 T01241048  RH  030%=      5-min Rain = 0

Page generated in 0.1236 seconds.